<?xml version="1.0" encoding="UTF-8" standalone="no" ?>
<gpx xmlns="http://www.topografix.com/GPX/1/1" xmlns:xsi="http://www.w3.org/2001/XMLSchema-instance" xsi:schemaLocation="http://www.topografix.com/GPX/1/1 http://www.topografix.com/GPX/1/1/gpx.xsd" version="1.1" creator="VisuGPX - https://www.visugpx.com">
  <metadata>
    <name>Pré qui tue </name>
    <desc><![CDATA[

]]></desc>
  </metadata>
  <trk>
    <name><![CDATA[Pré qui tue ]]></name>
    <extensions>
      <line xmlns="http://www.topografix.com/GPX/gpx_style/0/2">
        <color>0000FF</color>
        <width>4</width>
      </line>
    </extensions>
    <trkseg>
      <trkpt lat="45.29665" lon="5.84553">
        <ele>1227.4379882812</ele>
        <time>2017-02-14T11:13:05Z</time>
      </trkpt>
      <trkpt lat="45.29669" lon="5.84553">
        <ele>1225.4379882812</ele>
        <time>2017-02-14T11:13:13Z</time>
      </trkpt>
      <trkpt lat="45.29674" lon="5.84549">
        <ele>1226.4379882812</ele>
        <time>2017-02-14T11:13:21Z</time>
      </trkpt>
      <trkpt lat="45.29678" lon="5.84545">
        <ele>1226.4379882812</ele>
        <time>2017-02-14T11:13:31Z</time>
      </trkpt>
      <trkpt lat="45.29683" lon="5.84541">
        <ele>1224.4379882812</ele>
        <time>2017-02-14T11:13:42Z</time>
      </trkpt>
      <trkpt lat="45.29688" lon="5.84538">
        <ele>1223.4379882812</ele>
        <time>2017-02-14T11:13:47Z</time>
      </trkpt>
      <trkpt lat="45.29693" lon="5.84539">
        <ele>1224.4379882812</ele>
        <time>2017-02-14T11:13:52Z</time>
      </trkpt>
      <trkpt lat="45.29697" lon="5.84538">
        <ele>1225.4379882812</ele>
        <time>2017-02-14T11:13:57Z</time>
      </trkpt>
      <trkpt lat="45.29703" lon="5.84537">
        <ele>1226.4389648438</ele>
        <time>2017-02-14T11:14:02Z</time>
      </trkpt>
      <trkpt lat="45.29707" lon="5.84536">
        <ele>1227.4389648438</ele>
        <time>2017-02-14T11:14:06Z</time>
      </trkpt>
      <trkpt lat="45.29712" lon="5.84538">
        <ele>1230.4389648438</ele>
        <time>2017-02-14T11:14:14Z</time>
      </trkpt>
      <trkpt lat="45.2972" lon="5.84536">
        <ele>1230.4389648438</ele>
        <time>2017-02-14T11:14:18Z</time>
      </trkpt>
      <trkpt lat="45.29725" lon="5.84534">
        <ele>1231.4389648438</ele>
        <time>2017-02-14T11:14:24Z</time>
      </trkpt>
      <trkpt lat="45.2973" lon="5.84534">
        <ele>1233.4389648438</ele>
        <time>2017-02-14T11:14:31Z</time>
      </trkpt>
      <trkpt lat="45.29735" lon="5.84533">
        <ele>1235.4389648438</ele>
        <time>2017-02-14T11:14:38Z</time>
      </trkpt>
      <trkpt lat="45.2974" lon="5.8453">
        <ele>1236.4389648438</ele>
        <time>2017-02-14T11:14:44Z</time>
      </trkpt>
      <trkpt lat="45.29744" lon="5.84528">
        <ele>1237.4389648438</ele>
        <time>2017-02-14T11:14:49Z</time>
      </trkpt>
      <trkpt lat="45.29747" lon="5.84523">
        <ele>1238.4389648438</ele>
        <time>2017-02-14T11:14:59Z</time>
      </trkpt>
      <trkpt lat="45.29751" lon="5.84521">
        <ele>1242.4389648438</ele>
        <time>2017-02-14T11:15:04Z</time>
      </trkpt>
      <trkpt lat="45.29756" lon="5.84523">
        <ele>1242.4389648438</ele>
        <time>2017-02-14T11:15:07Z</time>
      </trkpt>
      <trkpt lat="45.29762" lon="5.8452">
        <ele>1245.4389648438</ele>
        <time>2017-02-14T11:15:36Z</time>
      </trkpt>
      <trkpt lat="45.29767" lon="5.84521">
        <ele>1247.4389648438</ele>
        <time>2017-02-14T11:15:43Z</time>
      </trkpt>
      <trkpt lat="45.29773" lon="5.84522">
        <ele>1248.4389648438</ele>
        <time>2017-02-14T11:15:47Z</time>
      </trkpt>
      <trkpt lat="45.29778" lon="5.84525">
        <ele>1248.4389648438</ele>
        <time>2017-02-14T11:15:50Z</time>
      </trkpt>
      <trkpt lat="45.29783" lon="5.84527">
        <ele>1254.4389648438</ele>
        <time>2017-02-14T11:16:01Z</time>
      </trkpt>
      <trkpt lat="45.29788" lon="5.84528">
        <ele>1255.4389648438</ele>
        <time>2017-02-14T11:16:21Z</time>
      </trkpt>
      <trkpt lat="45.29793" lon="5.84529">
        <ele>1257.4389648438</ele>
        <time>2017-02-14T11:16:25Z</time>
      </trkpt>
      <trkpt lat="45.29797" lon="5.8453">
        <ele>1262.4389648438</ele>
        <time>2017-02-14T11:16:36Z</time>
      </trkpt>
      <trkpt lat="45.29802" lon="5.8453">
        <ele>1262.4389648438</ele>
        <time>2017-02-14T11:16:44Z</time>
      </trkpt>
      <trkpt lat="45.29806" lon="5.84528">
        <ele>1265.4389648438</ele>
        <time>2017-02-14T11:16:53Z</time>
      </trkpt>
      <trkpt lat="45.29812" lon="5.84525">
        <ele>1266.4389648438</ele>
        <time>2017-02-14T11:16:57Z</time>
      </trkpt>
      <trkpt lat="45.29818" lon="5.84522">
        <ele>1267.4389648438</ele>
        <time>2017-02-14T11:17:01Z</time>
      </trkpt>
      <trkpt lat="45.29823" lon="5.8452">
        <ele>1268.4389648438</ele>
        <time>2017-02-14T11:17:15Z</time>
      </trkpt>
      <trkpt lat="45.29827" lon="5.84518">
        <ele>1275.4389648438</ele>
        <time>2017-02-14T11:17:25Z</time>
      </trkpt>
      <trkpt lat="45.29832" lon="5.84518">
        <ele>1282.4389648438</ele>
        <time>2017-02-14T11:17:35Z</time>
      </trkpt>
      <trkpt lat="45.29838" lon="5.84518">
        <ele>1284.4389648438</ele>
        <time>2017-02-14T11:17:49Z</time>
      </trkpt>
      <trkpt lat="45.29844" lon="5.84517">
        <ele>1286.4389648438</ele>
        <time>2017-02-14T11:17:55Z</time>
      </trkpt>
      <trkpt lat="45.29848" lon="5.84516">
        <ele>1288.4389648438</ele>
        <time>2017-02-14T11:18:07Z</time>
      </trkpt>
      <trkpt lat="45.29853" lon="5.84515">
        <ele>1289.4389648438</ele>
        <time>2017-02-14T11:18:11Z</time>
      </trkpt>
      <trkpt lat="45.29859" lon="5.84516">
        <ele>1293.4389648438</ele>
        <time>2017-02-14T11:18:24Z</time>
      </trkpt>
      <trkpt lat="45.29863" lon="5.84514">
        <ele>1294.4389648438</ele>
        <time>2017-02-14T11:18:29Z</time>
      </trkpt>
      <trkpt lat="45.29869" lon="5.84514">
        <ele>1298.4389648438</ele>
        <time>2017-02-14T11:18:36Z</time>
      </trkpt>
      <trkpt lat="45.29874" lon="5.84513">
        <ele>1299.4389648438</ele>
        <time>2017-02-14T11:18:45Z</time>
      </trkpt>
      <trkpt lat="45.2988" lon="5.8451">
        <ele>1304.4389648438</ele>
        <time>2017-02-14T11:19:23Z</time>
      </trkpt>
      <trkpt lat="45.29885" lon="5.8451">
        <ele>1305.4389648438</ele>
        <time>2017-02-14T11:19:28Z</time>
      </trkpt>
      <trkpt lat="45.2989" lon="5.84509">
        <ele>1307.4389648438</ele>
        <time>2017-02-14T11:19:35Z</time>
      </trkpt>
      <trkpt lat="45.29895" lon="5.84508">
        <ele>1309.4389648438</ele>
        <time>2017-02-14T11:19:42Z</time>
      </trkpt>
      <trkpt lat="45.299" lon="5.84506">
        <ele>1317.4389648438</ele>
        <time>2017-02-14T11:19:52Z</time>
      </trkpt>
      <trkpt lat="45.29905" lon="5.84508">
        <ele>1319.4389648438</ele>
        <time>2017-02-14T11:20:08Z</time>
      </trkpt>
      <trkpt lat="45.29909" lon="5.84507">
        <ele>1321.4389648438</ele>
        <time>2017-02-14T11:20:16Z</time>
      </trkpt>
      <trkpt lat="45.29914" lon="5.84509">
        <ele>1323.4389648438</ele>
        <time>2017-02-14T11:20:19Z</time>
      </trkpt>
      <trkpt lat="45.29918" lon="5.8451">
        <ele>1325.4389648438</ele>
        <time>2017-02-14T11:20:25Z</time>
      </trkpt>
      <trkpt lat="45.29925" lon="5.84513">
        <ele>1326.4389648438</ele>
        <time>2017-02-14T11:20:31Z</time>
      </trkpt>
      <trkpt lat="45.2993" lon="5.84513">
        <ele>1327.4389648438</ele>
        <time>2017-02-14T11:20:36Z</time>
      </trkpt>
      <trkpt lat="45.29935" lon="5.84515">
        <ele>1329.4389648438</ele>
        <time>2017-02-14T11:20:45Z</time>
      </trkpt>
      <trkpt lat="45.2994" lon="5.84514">
        <ele>1331.4389648438</ele>
        <time>2017-02-14T11:20:48Z</time>
      </trkpt>
      <trkpt lat="45.29944" lon="5.84517">
        <ele>1330.4389648438</ele>
        <time>2017-02-14T11:20:56Z</time>
      </trkpt>
      <trkpt lat="45.29949" lon="5.84519">
        <ele>1335.4389648438</ele>
        <time>2017-02-14T11:21:02Z</time>
      </trkpt>
      <trkpt lat="45.29953" lon="5.8452">
        <ele>1337.4389648438</ele>
        <time>2017-02-14T11:21:23Z</time>
      </trkpt>
      <trkpt lat="45.29958" lon="5.84521">
        <ele>1338.4389648438</ele>
        <time>2017-02-14T11:21:27Z</time>
      </trkpt>
      <trkpt lat="45.29964" lon="5.84521">
        <ele>1341.4389648438</ele>
        <time>2017-02-14T11:21:32Z</time>
      </trkpt>
      <trkpt lat="45.29969" lon="5.84522">
        <ele>1343.4389648438</ele>
        <time>2017-02-14T11:21:41Z</time>
      </trkpt>
      <trkpt lat="45.29974" lon="5.8452">
        <ele>1343.4389648438</ele>
        <time>2017-02-14T11:21:47Z</time>
      </trkpt>
      <trkpt lat="45.29978" lon="5.84522">
        <ele>1348.4389648438</ele>
        <time>2017-02-14T11:22:00Z</time>
      </trkpt>
      <trkpt lat="45.29983" lon="5.84523">
        <ele>1347.4389648438</ele>
        <time>2017-02-14T11:22:07Z</time>
      </trkpt>
      <trkpt lat="45.29987" lon="5.84522">
        <ele>1351.4389648438</ele>
        <time>2017-02-14T11:22:16Z</time>
      </trkpt>
      <trkpt lat="45.29992" lon="5.84524">
        <ele>1353.4389648438</ele>
        <time>2017-02-14T11:22:22Z</time>
      </trkpt>
      <trkpt lat="45.29998" lon="5.84526">
        <ele>1356.4389648438</ele>
        <time>2017-02-14T11:22:31Z</time>
      </trkpt>
      <trkpt lat="45.30002" lon="5.84528">
        <ele>1355.4389648438</ele>
        <time>2017-02-14T11:22:38Z</time>
      </trkpt>
      <trkpt lat="45.30008" lon="5.84527">
        <ele>1357.4389648438</ele>
        <time>2017-02-14T11:22:43Z</time>
      </trkpt>
      <trkpt lat="45.30013" lon="5.84526">
        <ele>1358.4389648438</ele>
        <time>2017-02-14T11:22:46Z</time>
      </trkpt>
      <trkpt lat="45.30016" lon="5.84523">
        <ele>1359.4389648438</ele>
        <time>2017-02-14T11:22:52Z</time>
      </trkpt>
      <trkpt lat="45.30023" lon="5.84521">
        <ele>1362.4389648438</ele>
        <time>2017-02-14T11:23:05Z</time>
      </trkpt>
      <trkpt lat="45.30028" lon="5.84518">
        <ele>1364.4389648438</ele>
        <time>2017-02-14T11:23:21Z</time>
      </trkpt>
      <trkpt lat="45.30034" lon="5.84518">
        <ele>1364.4389648438</ele>
        <time>2017-02-14T11:23:28Z</time>
      </trkpt>
      <trkpt lat="45.3004" lon="5.84518">
        <ele>1369.4389648438</ele>
        <time>2017-02-14T11:23:33Z</time>
      </trkpt>
      <trkpt lat="45.30044" lon="5.84519">
        <ele>1371.4389648438</ele>
        <time>2017-02-14T11:23:41Z</time>
      </trkpt>
      <trkpt lat="45.30051" lon="5.84519">
        <ele>1370.4389648438</ele>
        <time>2017-02-14T11:23:45Z</time>
      </trkpt>
      <trkpt lat="45.30057" lon="5.84521">
        <ele>1371.4389648438</ele>
        <time>2017-02-14T11:23:50Z</time>
      </trkpt>
      <trkpt lat="45.30061" lon="5.84523">
        <ele>1371.4389648438</ele>
        <time>2017-02-14T11:23:57Z</time>
      </trkpt>
      <trkpt lat="45.30065" lon="5.84518">
        <ele>1372.4389648438</ele>
        <time>2017-02-14T11:24:08Z</time>
      </trkpt>
      <trkpt lat="45.3007" lon="5.84516">
        <ele>1374.4389648438</ele>
        <time>2017-02-14T11:24:15Z</time>
      </trkpt>
      <trkpt lat="45.30075" lon="5.84516">
        <ele>1377.4389648438</ele>
        <time>2017-02-14T11:24:24Z</time>
      </trkpt>
      <trkpt lat="45.30081" lon="5.84514">
        <ele>1371.4389648438</ele>
        <time>2017-02-14T11:24:34Z</time>
      </trkpt>
      <trkpt lat="45.30087" lon="5.84511">
        <ele>1375.4389648438</ele>
        <time>2017-02-14T11:24:36Z</time>
      </trkpt>
      <trkpt lat="45.30091" lon="5.84511">
        <ele>1379.4389648438</ele>
        <time>2017-02-14T11:24:40Z</time>
      </trkpt>
      <trkpt lat="45.30097" lon="5.84512">
        <ele>1383.4389648438</ele>
        <time>2017-02-14T11:24:46Z</time>
      </trkpt>
      <trkpt lat="45.30101" lon="5.8451">
        <ele>1388.4389648438</ele>
        <time>2017-02-14T11:24:58Z</time>
      </trkpt>
      <trkpt lat="45.30107" lon="5.84509">
        <ele>1389.4389648438</ele>
        <time>2017-02-14T11:25:19Z</time>
      </trkpt>
      <trkpt lat="45.30115" lon="5.8451">
        <ele>1388.4389648438</ele>
        <time>2017-02-14T11:25:21Z</time>
      </trkpt>
      <trkpt lat="45.30121" lon="5.84511">
        <ele>1389.4389648438</ele>
        <time>2017-02-14T11:25:23Z</time>
      </trkpt>
      <trkpt lat="45.30125" lon="5.84514">
        <ele>1389.4389648438</ele>
        <time>2017-02-14T11:25:29Z</time>
      </trkpt>
      <trkpt lat="45.3013" lon="5.84516">
        <ele>1390.4389648438</ele>
        <time>2017-02-14T11:25:32Z</time>
      </trkpt>
      <trkpt lat="45.30133" lon="5.84523">
        <ele>1392.4389648438</ele>
        <time>2017-02-14T11:25:40Z</time>
      </trkpt>
      <trkpt lat="45.30138" lon="5.84525">
        <ele>1395.4389648438</ele>
        <time>2017-02-14T11:25:45Z</time>
      </trkpt>
      <trkpt lat="45.30142" lon="5.84525">
        <ele>1397.4389648438</ele>
        <time>2017-02-14T11:25:49Z</time>
      </trkpt>
      <trkpt lat="45.30147" lon="5.84529">
        <ele>1400.4389648438</ele>
        <time>2017-02-14T11:26:02Z</time>
      </trkpt>
      <trkpt lat="45.30153" lon="5.84528">
        <ele>1402.4389648438</ele>
        <time>2017-02-14T11:26:05Z</time>
      </trkpt>
      <trkpt lat="45.30157" lon="5.84533">
        <ele>1404.4389648438</ele>
        <time>2017-02-14T11:26:11Z</time>
      </trkpt>
      <trkpt lat="45.30161" lon="5.84537">
        <ele>1404.4389648438</ele>
        <time>2017-02-14T11:26:23Z</time>
      </trkpt>
      <trkpt lat="45.30165" lon="5.84541">
        <ele>1407.4389648438</ele>
        <time>2017-02-14T11:26:32Z</time>
      </trkpt>
      <trkpt lat="45.3017" lon="5.84542">
        <ele>1409.4389648438</ele>
        <time>2017-02-14T11:26:39Z</time>
      </trkpt>
      <trkpt lat="45.30174" lon="5.8454">
        <ele>1405.4389648438</ele>
        <time>2017-02-14T11:26:42Z</time>
      </trkpt>
      <trkpt lat="45.30179" lon="5.84542">
        <ele>1410.4399414062</ele>
        <time>2017-02-14T11:27:01Z</time>
      </trkpt>
      <trkpt lat="45.30184" lon="5.84542">
        <ele>1412.4399414062</ele>
        <time>2017-02-14T11:27:04Z</time>
      </trkpt>
      <trkpt lat="45.30188" lon="5.84544">
        <ele>1415.4399414062</ele>
        <time>2017-02-14T11:27:09Z</time>
      </trkpt>
      <trkpt lat="45.30193" lon="5.84542">
        <ele>1416.4399414062</ele>
        <time>2017-02-14T11:27:18Z</time>
      </trkpt>
      <trkpt lat="45.30198" lon="5.84542">
        <ele>1421.4399414062</ele>
        <time>2017-02-14T11:27:29Z</time>
      </trkpt>
      <trkpt lat="45.30203" lon="5.84542">
        <ele>1423.4399414062</ele>
        <time>2017-02-14T11:27:36Z</time>
      </trkpt>
      <trkpt lat="45.30207" lon="5.84537">
        <ele>1421.4399414062</ele>
        <time>2017-02-14T11:27:44Z</time>
      </trkpt>
      <trkpt lat="45.30214" lon="5.84536">
        <ele>1422.4399414062</ele>
        <time>2017-02-14T11:27:47Z</time>
      </trkpt>
      <trkpt lat="45.30219" lon="5.84534">
        <ele>1423.4399414062</ele>
        <time>2017-02-14T11:27:50Z</time>
      </trkpt>
      <trkpt lat="45.30224" lon="5.84532">
        <ele>1428.4399414062</ele>
        <time>2017-02-14T11:27:55Z</time>
      </trkpt>
      <trkpt lat="45.30229" lon="5.84532">
        <ele>1435.4399414062</ele>
        <time>2017-02-14T11:28:01Z</time>
      </trkpt>
      <trkpt lat="45.30234" lon="5.84531">
        <ele>1437.4399414062</ele>
        <time>2017-02-14T11:28:05Z</time>
      </trkpt>
      <trkpt lat="45.30238" lon="5.8453">
        <ele>1439.4399414062</ele>
        <time>2017-02-14T11:28:12Z</time>
      </trkpt>
      <trkpt lat="45.30243" lon="5.84527">
        <ele>1438.4399414062</ele>
        <time>2017-02-14T11:28:24Z</time>
      </trkpt>
      <trkpt lat="45.30247" lon="5.84524">
        <ele>1438.4399414062</ele>
        <time>2017-02-14T11:28:37Z</time>
      </trkpt>
      <trkpt lat="45.30254" lon="5.84526">
        <ele>1439.4399414062</ele>
        <time>2017-02-14T11:28:47Z</time>
      </trkpt>
      <trkpt lat="45.30258" lon="5.84529">
        <ele>1442.4399414062</ele>
        <time>2017-02-14T11:28:57Z</time>
      </trkpt>
      <trkpt lat="45.30263" lon="5.84531">
        <ele>1443.4399414062</ele>
        <time>2017-02-14T11:29:51Z</time>
      </trkpt>
      <trkpt lat="45.30267" lon="5.8453">
        <ele>1450.4399414062</ele>
        <time>2017-02-14T11:30:16Z</time>
      </trkpt>
      <trkpt lat="45.30272" lon="5.84528">
        <ele>1450.4399414062</ele>
        <time>2017-02-14T11:30:36Z</time>
      </trkpt>
      <trkpt lat="45.30277" lon="5.84528">
        <ele>1451.4399414062</ele>
        <time>2017-02-14T11:30:39Z</time>
      </trkpt>
      <trkpt lat="45.30284" lon="5.84527">
        <ele>1455.4399414062</ele>
        <time>2017-02-14T11:30:44Z</time>
      </trkpt>
      <trkpt lat="45.3029" lon="5.84527">
        <ele>1456.4399414062</ele>
        <time>2017-02-14T11:30:49Z</time>
      </trkpt>
      <trkpt lat="45.30295" lon="5.84526">
        <ele>1454.4399414062</ele>
        <time>2017-02-14T11:30:56Z</time>
      </trkpt>
      <trkpt lat="45.30301" lon="5.84525">
        <ele>1455.4399414062</ele>
        <time>2017-02-14T11:31:01Z</time>
      </trkpt>
      <trkpt lat="45.30306" lon="5.84525">
        <ele>1456.4399414062</ele>
        <time>2017-02-14T11:31:06Z</time>
      </trkpt>
      <trkpt lat="45.30311" lon="5.84525">
        <ele>1456.4399414062</ele>
        <time>2017-02-14T11:31:11Z</time>
      </trkpt>
      <trkpt lat="45.30315" lon="5.84524">
        <ele>1458.4399414062</ele>
        <time>2017-02-14T11:31:16Z</time>
      </trkpt>
      <trkpt lat="45.3032" lon="5.84524">
        <ele>1459.4399414062</ele>
        <time>2017-02-14T11:31:22Z</time>
      </trkpt>
      <trkpt lat="45.30325" lon="5.84523">
        <ele>1460.4399414062</ele>
        <time>2017-02-14T11:31:28Z</time>
      </trkpt>
      <trkpt lat="45.30329" lon="5.84525">
        <ele>1462.4399414062</ele>
        <time>2017-02-14T11:31:36Z</time>
      </trkpt>
      <trkpt lat="45.3033" lon="5.84532">
        <ele>1464.4399414062</ele>
        <time>2017-02-14T11:31:44Z</time>
      </trkpt>
      <trkpt lat="45.3033" lon="5.84539">
        <ele>1464.4399414062</ele>
        <time>2017-02-14T11:31:51Z</time>
      </trkpt>
      <trkpt lat="45.30329" lon="5.84545">
        <ele>1464.4399414062</ele>
        <time>2017-02-14T11:31:58Z</time>
      </trkpt>
      <trkpt lat="45.30334" lon="5.84546">
        <ele>1466.4399414062</ele>
        <time>2017-02-14T11:32:08Z</time>
      </trkpt>
      <trkpt lat="45.3034" lon="5.84546">
        <ele>1466.4399414062</ele>
        <time>2017-02-14T11:32:15Z</time>
      </trkpt>
      <trkpt lat="45.30345" lon="5.84547">
        <ele>1469.4399414062</ele>
        <time>2017-02-14T11:32:21Z</time>
      </trkpt>
      <trkpt lat="45.30349" lon="5.84547">
        <ele>1471.4399414062</ele>
        <time>2017-02-14T11:32:28Z</time>
      </trkpt>
      <trkpt lat="45.30355" lon="5.84547">
        <ele>1475.4399414062</ele>
        <time>2017-02-14T11:32:35Z</time>
      </trkpt>
      <trkpt lat="45.3036" lon="5.84549">
        <ele>1478.4399414062</ele>
        <time>2017-02-14T11:32:42Z</time>
      </trkpt>
      <trkpt lat="45.30365" lon="5.84549">
        <ele>1480.4399414062</ele>
        <time>2017-02-14T11:32:48Z</time>
      </trkpt>
      <trkpt lat="45.30369" lon="5.8455">
        <ele>1482.4399414062</ele>
        <time>2017-02-14T11:32:54Z</time>
      </trkpt>
      <trkpt lat="45.30374" lon="5.8455">
        <ele>1483.4399414062</ele>
        <time>2017-02-14T11:33:02Z</time>
      </trkpt>
      <trkpt lat="45.30379" lon="5.8455">
        <ele>1484.4399414062</ele>
        <time>2017-02-14T11:33:07Z</time>
      </trkpt>
      <trkpt lat="45.30384" lon="5.84551">
        <ele>1485.4399414062</ele>
        <time>2017-02-14T11:33:14Z</time>
      </trkpt>
      <trkpt lat="45.30389" lon="5.84551">
        <ele>1488.4399414062</ele>
        <time>2017-02-14T11:33:19Z</time>
      </trkpt>
      <trkpt lat="45.30395" lon="5.84552">
        <ele>1491.4399414062</ele>
        <time>2017-02-14T11:33:25Z</time>
      </trkpt>
      <trkpt lat="45.30399" lon="5.84553">
        <ele>1492.4399414062</ele>
        <time>2017-02-14T11:33:30Z</time>
      </trkpt>
      <trkpt lat="45.30404" lon="5.84553">
        <ele>1493.4399414062</ele>
        <time>2017-02-14T11:33:36Z</time>
      </trkpt>
      <trkpt lat="45.30409" lon="5.84553">
        <ele>1493.4399414062</ele>
        <time>2017-02-14T11:33:46Z</time>
      </trkpt>
      <trkpt lat="45.30414" lon="5.84551">
        <ele>1494.4399414062</ele>
        <time>2017-02-14T11:33:50Z</time>
      </trkpt>
      <trkpt lat="45.30418" lon="5.84554">
        <ele>1494.4399414062</ele>
        <time>2017-02-14T11:33:56Z</time>
      </trkpt>
      <trkpt lat="45.30423" lon="5.84552">
        <ele>1494.4399414062</ele>
        <time>2017-02-14T11:34:06Z</time>
      </trkpt>
      <trkpt lat="45.30429" lon="5.84554">
        <ele>1497.4399414062</ele>
        <time>2017-02-14T11:34:14Z</time>
      </trkpt>
      <trkpt lat="45.30434" lon="5.84556">
        <ele>1500.4399414062</ele>
        <time>2017-02-14T11:34:21Z</time>
      </trkpt>
      <trkpt lat="45.30439" lon="5.84557">
        <ele>1499.4399414062</ele>
        <time>2017-02-14T11:34:30Z</time>
      </trkpt>
      <trkpt lat="45.30443" lon="5.84558">
        <ele>1501.4399414062</ele>
        <time>2017-02-14T11:34:36Z</time>
      </trkpt>
      <trkpt lat="45.30448" lon="5.84559">
        <ele>1505.4399414062</ele>
        <time>2017-02-14T11:34:40Z</time>
      </trkpt>
      <trkpt lat="45.30453" lon="5.84559">
        <ele>1508.4399414062</ele>
        <time>2017-02-14T11:34:46Z</time>
      </trkpt>
      <trkpt lat="45.30458" lon="5.8456">
        <ele>1510.4399414062</ele>
        <time>2017-02-14T11:34:51Z</time>
      </trkpt>
      <trkpt lat="45.30463" lon="5.84561">
        <ele>1512.4399414062</ele>
        <time>2017-02-14T11:34:57Z</time>
      </trkpt>
      <trkpt lat="45.30468" lon="5.84562">
        <ele>1515.4399414062</ele>
        <time>2017-02-14T11:35:05Z</time>
      </trkpt>
      <trkpt lat="45.30474" lon="5.84563">
        <ele>1521.4399414062</ele>
        <time>2017-02-14T11:35:19Z</time>
      </trkpt>
      <trkpt lat="45.3048" lon="5.84562">
        <ele>1521.4399414062</ele>
        <time>2017-02-14T11:35:27Z</time>
      </trkpt>
      <trkpt lat="45.30485" lon="5.84561">
        <ele>1520.4399414062</ele>
        <time>2017-02-14T11:35:38Z</time>
      </trkpt>
      <trkpt lat="45.3049" lon="5.84563">
        <ele>1517.4399414062</ele>
        <time>2017-02-14T11:35:47Z</time>
      </trkpt>
      <trkpt lat="45.30495" lon="5.84563">
        <ele>1520.4399414062</ele>
        <time>2017-02-14T11:35:51Z</time>
      </trkpt>
      <trkpt lat="45.305" lon="5.84564">
        <ele>1522.4399414062</ele>
        <time>2017-02-14T11:35:57Z</time>
      </trkpt>
      <trkpt lat="45.30505" lon="5.84564">
        <ele>1525.4399414062</ele>
        <time>2017-02-14T11:36:04Z</time>
      </trkpt>
      <trkpt lat="45.3051" lon="5.84564">
        <ele>1526.4399414062</ele>
        <time>2017-02-14T11:36:08Z</time>
      </trkpt>
      <trkpt lat="45.30514" lon="5.84566">
        <ele>1529.4399414062</ele>
        <time>2017-02-14T11:36:15Z</time>
      </trkpt>
      <trkpt lat="45.30518" lon="5.84569">
        <ele>1531.4399414062</ele>
        <time>2017-02-14T11:36:27Z</time>
      </trkpt>
      <trkpt lat="45.30523" lon="5.84571">
        <ele>1533.4399414062</ele>
        <time>2017-02-14T11:36:32Z</time>
      </trkpt>
      <trkpt lat="45.30528" lon="5.84572">
        <ele>1534.4399414062</ele>
        <time>2017-02-14T11:36:37Z</time>
      </trkpt>
      <trkpt lat="45.30531" lon="5.84578">
        <ele>1537.4399414062</ele>
        <time>2017-02-14T11:36:45Z</time>
      </trkpt>
      <trkpt lat="45.30529" lon="5.84586">
        <ele>1540.4399414062</ele>
        <time>2017-02-14T11:36:51Z</time>
      </trkpt>
      <trkpt lat="45.30529" lon="5.84593">
        <ele>1538.4399414062</ele>
        <time>2017-02-14T11:36:59Z</time>
      </trkpt>
      <trkpt lat="45.30528" lon="5.846">
        <ele>1539.4399414062</ele>
        <time>2017-02-14T11:37:04Z</time>
      </trkpt>
      <trkpt lat="45.30526" lon="5.84606">
        <ele>1541.4399414062</ele>
        <time>2017-02-14T11:37:11Z</time>
      </trkpt>
      <trkpt lat="45.30524" lon="5.84613">
        <ele>1544.4399414062</ele>
        <time>2017-02-14T11:37:18Z</time>
      </trkpt>
      <trkpt lat="45.30523" lon="5.84619">
        <ele>1545.4399414062</ele>
        <time>2017-02-14T11:37:26Z</time>
      </trkpt>
      <trkpt lat="45.30522" lon="5.84626">
        <ele>1546.4399414062</ele>
        <time>2017-02-14T11:37:33Z</time>
      </trkpt>
      <trkpt lat="45.30521" lon="5.84633">
        <ele>1549.4399414062</ele>
        <time>2017-02-14T11:37:40Z</time>
      </trkpt>
      <trkpt lat="45.30521" lon="5.8464">
        <ele>1549.4399414062</ele>
        <time>2017-02-14T11:37:48Z</time>
      </trkpt>
      <trkpt lat="45.3052" lon="5.84647">
        <ele>1553.4399414062</ele>
        <time>2017-02-14T11:37:57Z</time>
      </trkpt>
      <trkpt lat="45.3052" lon="5.84655">
        <ele>1554.4399414062</ele>
        <time>2017-02-14T11:38:05Z</time>
      </trkpt>
      <trkpt lat="45.30521" lon="5.84663">
        <ele>1557.4399414062</ele>
        <time>2017-02-14T11:38:11Z</time>
      </trkpt>
      <trkpt lat="45.30521" lon="5.84671">
        <ele>1555.4399414062</ele>
        <time>2017-02-14T11:38:20Z</time>
      </trkpt>
      <trkpt lat="45.30524" lon="5.84675">
        <ele>1559.4399414062</ele>
        <time>2017-02-14T11:38:25Z</time>
      </trkpt>
      <trkpt lat="45.30529" lon="5.84677">
        <ele>1565.4399414062</ele>
        <time>2017-02-14T11:38:32Z</time>
      </trkpt>
      <trkpt lat="45.30534" lon="5.84678">
        <ele>1568.4399414062</ele>
        <time>2017-02-14T11:38:38Z</time>
      </trkpt>
      <trkpt lat="45.30539" lon="5.84678">
        <ele>1569.4399414062</ele>
        <time>2017-02-14T11:38:45Z</time>
      </trkpt>
      <trkpt lat="45.30545" lon="5.84678">
        <ele>1571.4399414062</ele>
        <time>2017-02-14T11:38:53Z</time>
      </trkpt>
      <trkpt lat="45.30549" lon="5.84678">
        <ele>1574.4399414062</ele>
        <time>2017-02-14T11:39:00Z</time>
      </trkpt>
      <trkpt lat="45.30554" lon="5.84679">
        <ele>1574.4399414062</ele>
        <time>2017-02-14T11:39:07Z</time>
      </trkpt>
      <trkpt lat="45.30559" lon="5.8468">
        <ele>1576.4399414062</ele>
        <time>2017-02-14T11:39:13Z</time>
      </trkpt>
      <trkpt lat="45.30563" lon="5.8468">
        <ele>1579.4399414062</ele>
        <time>2017-02-14T11:39:27Z</time>
      </trkpt>
      <trkpt lat="45.30568" lon="5.84681">
        <ele>1580.4410400391</ele>
        <time>2017-02-14T11:39:33Z</time>
      </trkpt>
      <trkpt lat="45.30572" lon="5.84685">
        <ele>1583.4410400391</ele>
        <time>2017-02-14T11:39:42Z</time>
      </trkpt>
      <trkpt lat="45.30572" lon="5.84692">
        <ele>1584.4410400391</ele>
        <time>2017-02-14T11:39:48Z</time>
      </trkpt>
      <trkpt lat="45.30572" lon="5.84698">
        <ele>1585.4410400391</ele>
        <time>2017-02-14T11:39:55Z</time>
      </trkpt>
      <trkpt lat="45.30571" lon="5.84706">
        <ele>1586.4410400391</ele>
        <time>2017-02-14T11:40:04Z</time>
      </trkpt>
      <trkpt lat="45.30572" lon="5.84713">
        <ele>1586.4410400391</ele>
        <time>2017-02-14T11:40:10Z</time>
      </trkpt>
      <trkpt lat="45.30571" lon="5.84719">
        <ele>1586.4410400391</ele>
        <time>2017-02-14T11:40:22Z</time>
      </trkpt>
      <trkpt lat="45.30573" lon="5.84727">
        <ele>1589.4410400391</ele>
        <time>2017-02-14T11:40:26Z</time>
      </trkpt>
      <trkpt lat="45.30573" lon="5.84733">
        <ele>1594.4410400391</ele>
        <time>2017-02-14T11:40:34Z</time>
      </trkpt>
      <trkpt lat="45.30579" lon="5.84733">
        <ele>1595.4410400391</ele>
        <time>2017-02-14T11:40:41Z</time>
      </trkpt>
      <trkpt lat="45.30583" lon="5.84733">
        <ele>1597.4410400391</ele>
        <time>2017-02-14T11:40:47Z</time>
      </trkpt>
      <trkpt lat="45.30588" lon="5.84735">
        <ele>1598.4410400391</ele>
        <time>2017-02-14T11:40:55Z</time>
      </trkpt>
      <trkpt lat="45.30593" lon="5.84736">
        <ele>1599.4410400391</ele>
        <time>2017-02-14T11:41:00Z</time>
      </trkpt>
      <trkpt lat="45.30598" lon="5.84737">
        <ele>1600.4410400391</ele>
        <time>2017-02-14T11:41:06Z</time>
      </trkpt>
      <trkpt lat="45.30602" lon="5.84737">
        <ele>1601.4410400391</ele>
        <time>2017-02-14T11:41:12Z</time>
      </trkpt>
      <trkpt lat="45.30607" lon="5.84737">
        <ele>1603.4410400391</ele>
        <time>2017-02-14T11:41:17Z</time>
      </trkpt>
      <trkpt lat="45.30612" lon="5.84737">
        <ele>1603.4410400391</ele>
        <time>2017-02-14T11:41:26Z</time>
      </trkpt>
      <trkpt lat="45.30616" lon="5.84738">
        <ele>1609.4410400391</ele>
        <time>2017-02-14T11:41:33Z</time>
      </trkpt>
      <trkpt lat="45.30617" lon="5.84746">
        <ele>1613.4410400391</ele>
        <time>2017-02-14T11:41:41Z</time>
      </trkpt>
      <trkpt lat="45.30617" lon="5.84753">
        <ele>1616.4410400391</ele>
        <time>2017-02-14T11:41:50Z</time>
      </trkpt>
      <trkpt lat="45.30617" lon="5.84759">
        <ele>1594.4410400391</ele>
        <time>2017-02-14T11:41:56Z</time>
      </trkpt>
      <trkpt lat="45.30615" lon="5.84765">
        <ele>1619.4410400391</ele>
        <time>2017-02-14T11:42:03Z</time>
      </trkpt>
      <trkpt lat="45.30615" lon="5.84772">
        <ele>1520.4410400391</ele>
        <time>2017-02-14T11:42:10Z</time>
      </trkpt>
      <trkpt lat="45.30616" lon="5.84779">
        <ele>1614.4410400391</ele>
        <time>2017-02-14T11:42:21Z</time>
      </trkpt>
      <trkpt lat="45.3062" lon="5.8478">
        <ele>1615.4410400391</ele>
        <time>2017-02-14T11:42:30Z</time>
      </trkpt>
      <trkpt lat="45.30626" lon="5.84782">
        <ele>1623.4410400391</ele>
        <time>2017-02-14T11:42:39Z</time>
      </trkpt>
      <trkpt lat="45.30631" lon="5.84784">
        <ele>1625.4410400391</ele>
        <time>2017-02-14T11:42:48Z</time>
      </trkpt>
      <trkpt lat="45.30636" lon="5.84786">
        <ele>1625.4410400391</ele>
        <time>2017-02-14T11:42:55Z</time>
      </trkpt>
      <trkpt lat="45.30642" lon="5.84786">
        <ele>1628.4410400391</ele>
        <time>2017-02-14T11:43:08Z</time>
      </trkpt>
      <trkpt lat="45.30646" lon="5.84789">
        <ele>1632.4410400391</ele>
        <time>2017-02-14T11:43:16Z</time>
      </trkpt>
      <trkpt lat="45.30651" lon="5.84789">
        <ele>1635.4410400391</ele>
        <time>2017-02-14T11:43:24Z</time>
      </trkpt>
      <trkpt lat="45.30657" lon="5.84789">
        <ele>1639.4410400391</ele>
        <time>2017-02-14T11:43:30Z</time>
      </trkpt>
      <trkpt lat="45.30662" lon="5.8479">
        <ele>1639.4410400391</ele>
        <time>2017-02-14T11:43:36Z</time>
      </trkpt>
      <trkpt lat="45.30667" lon="5.84791">
        <ele>1640.4410400391</ele>
        <time>2017-02-14T11:43:42Z</time>
      </trkpt>
      <trkpt lat="45.30672" lon="5.84791">
        <ele>1641.4410400391</ele>
        <time>2017-02-14T11:43:48Z</time>
      </trkpt>
      <trkpt lat="45.30677" lon="5.84791">
        <ele>1643.4410400391</ele>
        <time>2017-02-14T11:43:55Z</time>
      </trkpt>
      <trkpt lat="45.30682" lon="5.84792">
        <ele>1643.4410400391</ele>
        <time>2017-02-14T11:44:01Z</time>
      </trkpt>
      <trkpt lat="45.30687" lon="5.84793">
        <ele>1644.4410400391</ele>
        <time>2017-02-14T11:44:07Z</time>
      </trkpt>
      <trkpt lat="45.30691" lon="5.84794">
        <ele>1645.4410400391</ele>
        <time>2017-02-14T11:44:14Z</time>
      </trkpt>
      <trkpt lat="45.30694" lon="5.848">
        <ele>1647.4410400391</ele>
        <time>2017-02-14T11:44:21Z</time>
      </trkpt>
      <trkpt lat="45.30691" lon="5.84806">
        <ele>1649.4410400391</ele>
        <time>2017-02-14T11:44:28Z</time>
      </trkpt>
      <trkpt lat="45.30692" lon="5.84812">
        <ele>1651.4410400391</ele>
        <time>2017-02-14T11:44:37Z</time>
      </trkpt>
      <trkpt lat="45.30689" lon="5.84818">
        <ele>1654.4410400391</ele>
        <time>2017-02-14T11:44:44Z</time>
      </trkpt>
      <trkpt lat="45.30687" lon="5.84825">
        <ele>1662.4410400391</ele>
        <time>2017-02-14T11:44:55Z</time>
      </trkpt>
      <trkpt lat="45.30691" lon="5.84829">
        <ele>1662.4410400391</ele>
        <time>2017-02-14T11:45:31Z</time>
      </trkpt>
      <trkpt lat="45.30696" lon="5.8483">
        <ele>1665.4410400391</ele>
        <time>2017-02-14T11:45:38Z</time>
      </trkpt>
      <trkpt lat="45.307" lon="5.84829">
        <ele>1668.4410400391</ele>
        <time>2017-02-14T11:45:45Z</time>
      </trkpt>
      <trkpt lat="45.30706" lon="5.84827">
        <ele>1669.4410400391</ele>
        <time>2017-02-14T11:45:51Z</time>
      </trkpt>
      <trkpt lat="45.30711" lon="5.84828">
        <ele>1669.4410400391</ele>
        <time>2017-02-14T11:45:59Z</time>
      </trkpt>
      <trkpt lat="45.30716" lon="5.84832">
        <ele>1666.4410400391</ele>
        <time>2017-02-14T11:46:08Z</time>
      </trkpt>
      <trkpt lat="45.30721" lon="5.84834">
        <ele>1669.4410400391</ele>
        <time>2017-02-14T11:47:17Z</time>
      </trkpt>
      <trkpt lat="45.30725" lon="5.84835">
        <ele>1670.4410400391</ele>
        <time>2017-02-14T11:47:23Z</time>
      </trkpt>
      <trkpt lat="45.3073" lon="5.84834">
        <ele>1672.4410400391</ele>
        <time>2017-02-14T11:47:31Z</time>
      </trkpt>
      <trkpt lat="45.30735" lon="5.84838">
        <ele>1673.4410400391</ele>
        <time>2017-02-14T11:47:38Z</time>
      </trkpt>
      <trkpt lat="45.30741" lon="5.84842">
        <ele>1674.4410400391</ele>
        <time>2017-02-14T11:47:44Z</time>
      </trkpt>
      <trkpt lat="45.30746" lon="5.84844">
        <ele>1679.4410400391</ele>
        <time>2017-02-14T11:48:06Z</time>
      </trkpt>
      <trkpt lat="45.30749" lon="5.84851">
        <ele>1684.4410400391</ele>
        <time>2017-02-14T11:48:12Z</time>
      </trkpt>
      <trkpt lat="45.30746" lon="5.84857">
        <ele>1686.4410400391</ele>
        <time>2017-02-14T11:48:21Z</time>
      </trkpt>
      <trkpt lat="45.30745" lon="5.84864">
        <ele>1685.4410400391</ele>
        <time>2017-02-14T11:48:27Z</time>
      </trkpt>
      <trkpt lat="45.30741" lon="5.84868">
        <ele>1690.4410400391</ele>
        <time>2017-02-14T11:48:34Z</time>
      </trkpt>
      <trkpt lat="45.30746" lon="5.84869">
        <ele>1695.4410400391</ele>
        <time>2017-02-14T11:48:49Z</time>
      </trkpt>
      <trkpt lat="45.30752" lon="5.84869">
        <ele>1696.4410400391</ele>
        <time>2017-02-14T11:48:57Z</time>
      </trkpt>
      <trkpt lat="45.30757" lon="5.84871">
        <ele>1694.4410400391</ele>
        <time>2017-02-14T11:49:02Z</time>
      </trkpt>
      <trkpt lat="45.30763" lon="5.84874">
        <ele>1692.4410400391</ele>
        <time>2017-02-14T11:49:13Z</time>
      </trkpt>
      <trkpt lat="45.30769" lon="5.84875">
        <ele>1694.4410400391</ele>
        <time>2017-02-14T11:49:23Z</time>
      </trkpt>
      <trkpt lat="45.30772" lon="5.8488">
        <ele>1697.4410400391</ele>
        <time>2017-02-14T11:49:28Z</time>
      </trkpt>
      <trkpt lat="45.30777" lon="5.8488">
        <ele>1700.4410400391</ele>
        <time>2017-02-14T11:49:39Z</time>
      </trkpt>
      <trkpt lat="45.30781" lon="5.8488">
        <ele>1701.4410400391</ele>
        <time>2017-02-14T11:49:47Z</time>
      </trkpt>
      <trkpt lat="45.30787" lon="5.84882">
        <ele>1706.4410400391</ele>
        <time>2017-02-14T11:50:04Z</time>
      </trkpt>
      <trkpt lat="45.30791" lon="5.84885">
        <ele>1707.4410400391</ele>
        <time>2017-02-14T11:50:17Z</time>
      </trkpt>
      <trkpt lat="45.30796" lon="5.84883">
        <ele>1710.4410400391</ele>
        <time>2017-02-14T11:50:26Z</time>
      </trkpt>
      <trkpt lat="45.30801" lon="5.84886">
        <ele>1712.4410400391</ele>
        <time>2017-02-14T11:50:31Z</time>
      </trkpt>
      <trkpt lat="45.30805" lon="5.84888">
        <ele>1714.4410400391</ele>
        <time>2017-02-14T11:50:41Z</time>
      </trkpt>
      <trkpt lat="45.3081" lon="5.84892">
        <ele>1716.4410400391</ele>
        <time>2017-02-14T11:50:53Z</time>
      </trkpt>
      <trkpt lat="45.30814" lon="5.84896">
        <ele>1720.4410400391</ele>
        <time>2017-02-14T11:50:58Z</time>
      </trkpt>
      <trkpt lat="45.30818" lon="5.849">
        <ele>1720.4410400391</ele>
        <time>2017-02-14T11:51:02Z</time>
      </trkpt>
      <trkpt lat="45.30823" lon="5.84901">
        <ele>1721.4410400391</ele>
        <time>2017-02-14T11:51:10Z</time>
      </trkpt>
      <trkpt lat="45.30826" lon="5.84896">
        <ele>1726.4410400391</ele>
        <time>2017-02-14T11:51:23Z</time>
      </trkpt>
      <trkpt lat="45.30831" lon="5.84896">
        <ele>1728.4410400391</ele>
        <time>2017-02-14T11:51:31Z</time>
      </trkpt>
      <trkpt lat="45.30837" lon="5.84893">
        <ele>1733.4410400391</ele>
        <time>2017-02-14T11:51:42Z</time>
      </trkpt>
      <trkpt lat="45.30842" lon="5.84895">
        <ele>1732.4410400391</ele>
        <time>2017-02-14T11:51:46Z</time>
      </trkpt>
      <trkpt lat="45.30847" lon="5.84894">
        <ele>1736.4410400391</ele>
        <time>2017-02-14T11:51:55Z</time>
      </trkpt>
      <trkpt lat="45.30851" lon="5.84894">
        <ele>1738.4410400391</ele>
        <time>2017-02-14T11:51:58Z</time>
      </trkpt>
      <trkpt lat="45.30857" lon="5.84893">
        <ele>1742.4410400391</ele>
        <time>2017-02-14T11:52:06Z</time>
      </trkpt>
      <trkpt lat="45.30863" lon="5.84893">
        <ele>1743.4410400391</ele>
        <time>2017-02-14T11:52:14Z</time>
      </trkpt>
      <trkpt lat="45.30867" lon="5.84893">
        <ele>1745.4410400391</ele>
        <time>2017-02-14T11:52:20Z</time>
      </trkpt>
      <trkpt lat="45.30873" lon="5.84893">
        <ele>1746.4410400391</ele>
        <time>2017-02-14T11:52:26Z</time>
      </trkpt>
      <trkpt lat="45.30878" lon="5.84893">
        <ele>1749.4410400391</ele>
        <time>2017-02-14T11:52:34Z</time>
      </trkpt>
      <trkpt lat="45.30883" lon="5.84893">
        <ele>1749.4410400391</ele>
        <time>2017-02-14T11:52:38Z</time>
      </trkpt>
      <trkpt lat="45.30888" lon="5.8489">
        <ele>1751.4410400391</ele>
        <time>2017-02-14T11:52:47Z</time>
      </trkpt>
      <trkpt lat="45.30892" lon="5.84889">
        <ele>1751.4410400391</ele>
        <time>2017-02-14T11:52:52Z</time>
      </trkpt>
      <trkpt lat="45.30896" lon="5.84886">
        <ele>1753.4410400391</ele>
        <time>2017-02-14T11:52:58Z</time>
      </trkpt>
      <trkpt lat="45.30902" lon="5.84884">
        <ele>1754.4410400391</ele>
        <time>2017-02-14T11:53:06Z</time>
      </trkpt>
      <trkpt lat="45.30907" lon="5.84882">
        <ele>1756.4410400391</ele>
        <time>2017-02-14T11:53:12Z</time>
      </trkpt>
      <trkpt lat="45.30912" lon="5.8488">
        <ele>1759.4410400391</ele>
        <time>2017-02-14T11:53:18Z</time>
      </trkpt>
      <trkpt lat="45.30918" lon="5.8488">
        <ele>1760.4410400391</ele>
        <time>2017-02-14T11:53:25Z</time>
      </trkpt>
      <trkpt lat="45.30922" lon="5.84878">
        <ele>1761.4420166016</ele>
        <time>2017-02-14T11:53:29Z</time>
      </trkpt>
      <trkpt lat="45.30927" lon="5.84876">
        <ele>1762.4420166016</ele>
        <time>2017-02-14T11:53:35Z</time>
      </trkpt>
      <trkpt lat="45.30932" lon="5.84877">
        <ele>1762.4420166016</ele>
        <time>2017-02-14T11:53:41Z</time>
      </trkpt>
      <trkpt lat="45.30937" lon="5.84878">
        <ele>1761.4420166016</ele>
        <time>2017-02-14T11:53:46Z</time>
      </trkpt>
      <trkpt lat="45.30943" lon="5.84877">
        <ele>1761.4420166016</ele>
        <time>2017-02-14T11:53:53Z</time>
      </trkpt>
      <trkpt lat="45.30948" lon="5.84875">
        <ele>1763.4420166016</ele>
        <time>2017-02-14T11:54:02Z</time>
      </trkpt>
      <trkpt lat="45.30953" lon="5.84872">
        <ele>1762.4420166016</ele>
        <time>2017-02-14T11:54:14Z</time>
      </trkpt>
      <trkpt lat="45.30958" lon="5.84871">
        <ele>1765.4420166016</ele>
        <time>2017-02-14T11:54:19Z</time>
      </trkpt>
      <trkpt lat="45.30963" lon="5.84872">
        <ele>1767.4420166016</ele>
        <time>2017-02-14T11:54:25Z</time>
      </trkpt>
      <trkpt lat="45.30968" lon="5.84873">
        <ele>1769.4420166016</ele>
        <time>2017-02-14T11:54:30Z</time>
      </trkpt>
      <trkpt lat="45.30972" lon="5.84872">
        <ele>1771.4420166016</ele>
        <time>2017-02-14T11:54:36Z</time>
      </trkpt>
      <trkpt lat="45.30977" lon="5.84873">
        <ele>1774.4420166016</ele>
        <time>2017-02-14T11:54:46Z</time>
      </trkpt>
      <trkpt lat="45.30982" lon="5.84874">
        <ele>1776.4420166016</ele>
        <time>2017-02-14T11:54:50Z</time>
      </trkpt>
      <trkpt lat="45.30982" lon="5.84882">
        <ele>1776.4420166016</ele>
        <time>2017-02-14T11:54:59Z</time>
      </trkpt>
      <trkpt lat="45.3098" lon="5.84889">
        <ele>1776.4420166016</ele>
        <time>2017-02-14T11:55:06Z</time>
      </trkpt>
      <trkpt lat="45.30977" lon="5.84894">
        <ele>1776.4420166016</ele>
        <time>2017-02-14T11:55:12Z</time>
      </trkpt>
      <trkpt lat="45.30975" lon="5.84901">
        <ele>1778.4420166016</ele>
        <time>2017-02-14T11:55:18Z</time>
      </trkpt>
      <trkpt lat="45.3098" lon="5.84903">
        <ele>1781.4420166016</ele>
        <time>2017-02-14T11:55:29Z</time>
      </trkpt>
      <trkpt lat="45.30984" lon="5.84905">
        <ele>1785.4420166016</ele>
        <time>2017-02-14T11:55:40Z</time>
      </trkpt>
      <trkpt lat="45.30989" lon="5.84907">
        <ele>1786.4420166016</ele>
        <time>2017-02-14T11:55:48Z</time>
      </trkpt>
      <trkpt lat="45.30994" lon="5.84909">
        <ele>1787.4420166016</ele>
        <time>2017-02-14T11:55:57Z</time>
      </trkpt>
      <trkpt lat="45.30998" lon="5.84912">
        <ele>1792.4420166016</ele>
        <time>2017-02-14T11:56:08Z</time>
      </trkpt>
      <trkpt lat="45.31003" lon="5.84913">
        <ele>1794.4420166016</ele>
        <time>2017-02-14T11:56:15Z</time>
      </trkpt>
      <trkpt lat="45.31" lon="5.84918">
        <ele>1794.4420166016</ele>
        <time>2017-02-14T11:56:22Z</time>
      </trkpt>
      <trkpt lat="45.30999" lon="5.84926">
        <ele>1795.4420166016</ele>
        <time>2017-02-14T11:56:28Z</time>
      </trkpt>
      <trkpt lat="45.30996" lon="5.84932">
        <ele>1796.4420166016</ele>
        <time>2017-02-14T11:56:35Z</time>
      </trkpt>
      <trkpt lat="45.30993" lon="5.84937">
        <ele>1798.4420166016</ele>
        <time>2017-02-14T11:56:41Z</time>
      </trkpt>
      <trkpt lat="45.30991" lon="5.84943">
        <ele>1801.4420166016</ele>
        <time>2017-02-14T11:56:48Z</time>
      </trkpt>
      <trkpt lat="45.30989" lon="5.84949">
        <ele>1805.4420166016</ele>
        <time>2017-02-14T11:56:56Z</time>
      </trkpt>
      <trkpt lat="45.30995" lon="5.84949">
        <ele>1815.4420166016</ele>
        <time>2017-02-14T11:57:20Z</time>
      </trkpt>
      <trkpt lat="45.31" lon="5.84951">
        <ele>1816.4420166016</ele>
        <time>2017-02-14T11:57:25Z</time>
      </trkpt>
      <trkpt lat="45.31004" lon="5.84955">
        <ele>1816.4420166016</ele>
        <time>2017-02-14T11:57:34Z</time>
      </trkpt>
      <trkpt lat="45.3101" lon="5.84958">
        <ele>1819.4420166016</ele>
        <time>2017-02-14T11:57:42Z</time>
      </trkpt>
      <trkpt lat="45.31014" lon="5.84961">
        <ele>1820.4420166016</ele>
        <time>2017-02-14T11:57:49Z</time>
      </trkpt>
      <trkpt lat="45.31018" lon="5.84965">
        <ele>1821.4420166016</ele>
        <time>2017-02-14T11:57:58Z</time>
      </trkpt>
      <trkpt lat="45.31023" lon="5.84969">
        <ele>1821.4420166016</ele>
        <time>2017-02-14T11:58:03Z</time>
      </trkpt>
      <trkpt lat="45.31018" lon="5.8497">
        <ele>1828.4420166016</ele>
        <time>2017-02-14T11:58:21Z</time>
      </trkpt>
      <trkpt lat="45.31014" lon="5.84976">
        <ele>1829.4420166016</ele>
        <time>2017-02-14T11:58:27Z</time>
      </trkpt>
      <trkpt lat="45.31009" lon="5.84977">
        <ele>1833.4420166016</ele>
        <time>2017-02-14T11:58:36Z</time>
      </trkpt>
      <trkpt lat="45.31005" lon="5.84982">
        <ele>1834.4420166016</ele>
        <time>2017-02-14T11:58:42Z</time>
      </trkpt>
      <trkpt lat="45.31" lon="5.84983">
        <ele>1837.4420166016</ele>
        <time>2017-02-14T11:58:47Z</time>
      </trkpt>
      <trkpt lat="45.30995" lon="5.84986">
        <ele>1838.4420166016</ele>
        <time>2017-02-14T11:58:53Z</time>
      </trkpt>
      <trkpt lat="45.30992" lon="5.84991">
        <ele>1840.4420166016</ele>
        <time>2017-02-14T11:58:59Z</time>
      </trkpt>
      <trkpt lat="45.30988" lon="5.84994">
        <ele>1840.4420166016</ele>
        <time>2017-02-14T11:59:04Z</time>
      </trkpt>
      <trkpt lat="45.30984" lon="5.84998">
        <ele>1839.4420166016</ele>
        <time>2017-02-14T11:59:08Z</time>
      </trkpt>
      <trkpt lat="45.3098" lon="5.85002">
        <ele>1842.4420166016</ele>
        <time>2017-02-14T11:59:14Z</time>
      </trkpt>
      <trkpt lat="45.30985" lon="5.85003">
        <ele>1843.4420166016</ele>
        <time>2017-02-14T11:59:29Z</time>
      </trkpt>
      <trkpt lat="45.30991" lon="5.85004">
        <ele>1848.4420166016</ele>
        <time>2017-02-14T11:59:38Z</time>
      </trkpt>
      <trkpt lat="45.30995" lon="5.85007">
        <ele>1846.4420166016</ele>
        <time>2017-02-14T11:59:44Z</time>
      </trkpt>
      <trkpt lat="45.30991" lon="5.85012">
        <ele>1847.4420166016</ele>
        <time>2017-02-14T11:59:52Z</time>
      </trkpt>
      <trkpt lat="45.30987" lon="5.85016">
        <ele>1849.4420166016</ele>
        <time>2017-02-14T11:59:59Z</time>
      </trkpt>
      <trkpt lat="45.30988" lon="5.85022">
        <ele>1847.4420166016</ele>
        <time>2017-02-14T12:00:07Z</time>
      </trkpt>
      <trkpt lat="45.30984" lon="5.85026">
        <ele>1845.4420166016</ele>
        <time>2017-02-14T12:00:16Z</time>
      </trkpt>
      <trkpt lat="45.30984" lon="5.85033">
        <ele>1850.4420166016</ele>
        <time>2017-02-14T12:00:22Z</time>
      </trkpt>
      <trkpt lat="45.30983" lon="5.8504">
        <ele>1856.4420166016</ele>
        <time>2017-02-14T12:00:45Z</time>
      </trkpt>
      <trkpt lat="45.3098" lon="5.85046">
        <ele>1857.4420166016</ele>
        <time>2017-02-14T12:00:53Z</time>
      </trkpt>
      <trkpt lat="45.30978" lon="5.85052">
        <ele>1858.4420166016</ele>
        <time>2017-02-14T12:00:58Z</time>
      </trkpt>
      <trkpt lat="45.30975" lon="5.85057">
        <ele>1859.4420166016</ele>
        <time>2017-02-14T12:01:04Z</time>
      </trkpt>
      <trkpt lat="45.30976" lon="5.85064">
        <ele>1860.4420166016</ele>
        <time>2017-02-14T12:01:17Z</time>
      </trkpt>
      <trkpt lat="45.3098" lon="5.85064">
        <ele>1862.4420166016</ele>
        <time>2017-02-14T12:01:23Z</time>
      </trkpt>
      <trkpt lat="45.30985" lon="5.85066">
        <ele>1864.4420166016</ele>
        <time>2017-02-14T12:01:31Z</time>
      </trkpt>
      <trkpt lat="45.30981" lon="5.85071">
        <ele>1869.4420166016</ele>
        <time>2017-02-14T12:01:49Z</time>
      </trkpt>
      <trkpt lat="45.30979" lon="5.85077">
        <ele>1875.4420166016</ele>
        <time>2017-02-14T12:01:59Z</time>
      </trkpt>
      <trkpt lat="45.30976" lon="5.85082">
        <ele>1874.4420166016</ele>
        <time>2017-02-14T12:02:04Z</time>
      </trkpt>
      <trkpt lat="45.30974" lon="5.85088">
        <ele>1876.4420166016</ele>
        <time>2017-02-14T12:02:12Z</time>
      </trkpt>
      <trkpt lat="45.3097" lon="5.85086">
        <ele>1879.4420166016</ele>
        <time>2017-02-14T12:03:03Z</time>
      </trkpt>
      <trkpt lat="45.30974" lon="5.85079">
        <ele>1872.4420166016</ele>
        <time>2017-02-14T12:03:41Z</time>
      </trkpt>
      <trkpt lat="45.30978" lon="5.85071">
        <ele>1871.4420166016</ele>
        <time>2017-02-14T12:03:43Z</time>
      </trkpt>
      <trkpt lat="45.30982" lon="5.85064">
        <ele>1859.4420166016</ele>
        <time>2017-02-14T12:03:45Z</time>
      </trkpt>
      <trkpt lat="45.30985" lon="5.85055">
        <ele>1868.4420166016</ele>
        <time>2017-02-14T12:03:48Z</time>
      </trkpt>
      <trkpt lat="45.30985" lon="5.85046">
        <ele>1867.4420166016</ele>
        <time>2017-02-14T12:03:50Z</time>
      </trkpt>
      <trkpt lat="45.30983" lon="5.85038">
        <ele>1864.4420166016</ele>
        <time>2017-02-14T12:03:53Z</time>
      </trkpt>
      <trkpt lat="45.30988" lon="5.85032">
        <ele>1862.4420166016</ele>
        <time>2017-02-14T12:03:56Z</time>
      </trkpt>
      <trkpt lat="45.30992" lon="5.85028">
        <ele>1857.4420166016</ele>
        <time>2017-02-14T12:03:59Z</time>
      </trkpt>
      <trkpt lat="45.30989" lon="5.85022">
        <ele>1852.4420166016</ele>
        <time>2017-02-14T12:04:02Z</time>
      </trkpt>
      <trkpt lat="45.30994" lon="5.85016">
        <ele>1849.4420166016</ele>
        <time>2017-02-14T12:04:05Z</time>
      </trkpt>
      <trkpt lat="45.30999" lon="5.85011">
        <ele>1848.4420166016</ele>
        <time>2017-02-14T12:04:08Z</time>
      </trkpt>
      <trkpt lat="45.31005" lon="5.85007">
        <ele>1848.4420166016</ele>
        <time>2017-02-14T12:04:11Z</time>
      </trkpt>
      <trkpt lat="45.31011" lon="5.85003">
        <ele>1846.4420166016</ele>
        <time>2017-02-14T12:04:13Z</time>
      </trkpt>
      <trkpt lat="45.31018" lon="5.85">
        <ele>1844.4420166016</ele>
        <time>2017-02-14T12:04:15Z</time>
      </trkpt>
      <trkpt lat="45.31016" lon="5.84993">
        <ele>1849.4420166016</ele>
        <time>2017-02-14T12:04:20Z</time>
      </trkpt>
      <trkpt lat="45.31017" lon="5.84985">
        <ele>1842.4420166016</ele>
        <time>2017-02-14T12:04:23Z</time>
      </trkpt>
      <trkpt lat="45.31013" lon="5.84979">
        <ele>1838.4420166016</ele>
        <time>2017-02-14T12:04:27Z</time>
      </trkpt>
      <trkpt lat="45.31017" lon="5.84973">
        <ele>1837.4420166016</ele>
        <time>2017-02-14T12:04:29Z</time>
      </trkpt>
      <trkpt lat="45.31019" lon="5.84964">
        <ele>1829.4420166016</ele>
        <time>2017-02-14T12:04:40Z</time>
      </trkpt>
      <trkpt lat="45.31025" lon="5.84962">
        <ele>1826.4420166016</ele>
        <time>2017-02-14T12:04:42Z</time>
      </trkpt>
      <trkpt lat="45.31029" lon="5.84955">
        <ele>1824.4420166016</ele>
        <time>2017-02-14T12:04:45Z</time>
      </trkpt>
      <trkpt lat="45.31034" lon="5.84954">
        <ele>1823.4420166016</ele>
        <time>2017-02-14T12:04:47Z</time>
      </trkpt>
      <trkpt lat="45.31042" lon="5.84951">
        <ele>1822.4420166016</ele>
        <time>2017-02-14T12:04:49Z</time>
      </trkpt>
      <trkpt lat="45.31051" lon="5.84942">
        <ele>1819.4420166016</ele>
        <time>2017-02-14T12:04:52Z</time>
      </trkpt>
      <trkpt lat="45.31044" lon="5.84928">
        <ele>1817.4420166016</ele>
        <time>2017-02-14T12:04:53Z</time>
      </trkpt>
      <trkpt lat="45.31049" lon="5.84927">
        <ele>1813.4420166016</ele>
        <time>2017-02-14T12:04:56Z</time>
      </trkpt>
      <trkpt lat="45.31048" lon="5.8492">
        <ele>1811.4420166016</ele>
        <time>2017-02-14T12:04:59Z</time>
      </trkpt>
      <trkpt lat="45.31045" lon="5.84906">
        <ele>1808.4420166016</ele>
        <time>2017-02-14T12:05:02Z</time>
      </trkpt>
      <trkpt lat="45.31049" lon="5.84898">
        <ele>1804.4420166016</ele>
        <time>2017-02-14T12:05:04Z</time>
      </trkpt>
      <trkpt lat="45.31042" lon="5.84894">
        <ele>1801.4420166016</ele>
        <time>2017-02-14T12:05:06Z</time>
      </trkpt>
      <trkpt lat="45.31048" lon="5.84888">
        <ele>1797.4420166016</ele>
        <time>2017-02-14T12:05:09Z</time>
      </trkpt>
      <trkpt lat="45.31046" lon="5.84881">
        <ele>1785.4420166016</ele>
        <time>2017-02-14T12:05:27Z</time>
      </trkpt>
      <trkpt lat="45.31041" lon="5.84878">
        <ele>1784.4420166016</ele>
        <time>2017-02-14T12:05:30Z</time>
      </trkpt>
      <trkpt lat="45.31034" lon="5.84873">
        <ele>1784.4420166016</ele>
        <time>2017-02-14T12:05:32Z</time>
      </trkpt>
      <trkpt lat="45.31027" lon="5.84872">
        <ele>1781.4420166016</ele>
        <time>2017-02-14T12:05:34Z</time>
      </trkpt>
      <trkpt lat="45.31018" lon="5.84868">
        <ele>1778.4420166016</ele>
        <time>2017-02-14T12:05:36Z</time>
      </trkpt>
      <trkpt lat="45.31004" lon="5.84865">
        <ele>1775.4420166016</ele>
        <time>2017-02-14T12:05:39Z</time>
      </trkpt>
      <trkpt lat="45.30991" lon="5.84864">
        <ele>1776.4420166016</ele>
        <time>2017-02-14T12:05:42Z</time>
      </trkpt>
      <trkpt lat="45.30984" lon="5.84865">
        <ele>1775.4420166016</ele>
        <time>2017-02-14T12:05:44Z</time>
      </trkpt>
      <trkpt lat="45.30976" lon="5.84865">
        <ele>1772.4420166016</ele>
        <time>2017-02-14T12:05:46Z</time>
      </trkpt>
      <trkpt lat="45.30969" lon="5.84864">
        <ele>1769.4420166016</ele>
        <time>2017-02-14T12:05:48Z</time>
      </trkpt>
      <trkpt lat="45.30965" lon="5.8486">
        <ele>1766.4420166016</ele>
        <time>2017-02-14T12:05:50Z</time>
      </trkpt>
      <trkpt lat="45.30961" lon="5.84855">
        <ele>1765.4420166016</ele>
        <time>2017-02-14T12:05:52Z</time>
      </trkpt>
      <trkpt lat="45.30963" lon="5.84844">
        <ele>1763.4420166016</ele>
        <time>2017-02-14T12:05:53Z</time>
      </trkpt>
      <trkpt lat="45.30959" lon="5.84833">
        <ele>1762.4420166016</ele>
        <time>2017-02-14T12:05:55Z</time>
      </trkpt>
      <trkpt lat="45.30957" lon="5.84828">
        <ele>1759.4420166016</ele>
        <time>2017-02-14T12:05:56Z</time>
      </trkpt>
      <trkpt lat="45.30954" lon="5.84816">
        <ele>1757.4410400391</ele>
        <time>2017-02-14T12:05:58Z</time>
      </trkpt>
      <trkpt lat="45.30946" lon="5.84815">
        <ele>1751.4410400391</ele>
        <time>2017-02-14T12:06:00Z</time>
      </trkpt>
      <trkpt lat="45.30933" lon="5.84819">
        <ele>1760.4410400391</ele>
        <time>2017-02-14T12:06:03Z</time>
      </trkpt>
      <trkpt lat="45.30927" lon="5.84821">
        <ele>1752.4410400391</ele>
        <time>2017-02-14T12:06:05Z</time>
      </trkpt>
      <trkpt lat="45.30928" lon="5.84807">
        <ele>1744.4410400391</ele>
        <time>2017-02-14T12:06:08Z</time>
      </trkpt>
      <trkpt lat="45.30919" lon="5.84801">
        <ele>1736.4410400391</ele>
        <time>2017-02-14T12:06:09Z</time>
      </trkpt>
      <trkpt lat="45.30909" lon="5.84803">
        <ele>1730.4410400391</ele>
        <time>2017-02-14T12:06:11Z</time>
      </trkpt>
      <trkpt lat="45.30901" lon="5.84804">
        <ele>1725.4410400391</ele>
        <time>2017-02-14T12:06:13Z</time>
      </trkpt>
      <trkpt lat="45.30906" lon="5.8479">
        <ele>1722.4410400391</ele>
        <time>2017-02-14T12:06:15Z</time>
      </trkpt>
      <trkpt lat="45.30912" lon="5.84776">
        <ele>1719.4410400391</ele>
        <time>2017-02-14T12:06:17Z</time>
      </trkpt>
      <trkpt lat="45.30916" lon="5.84762">
        <ele>1716.4410400391</ele>
        <time>2017-02-14T12:06:19Z</time>
      </trkpt>
      <trkpt lat="45.30917" lon="5.8475">
        <ele>1709.4410400391</ele>
        <time>2017-02-14T12:06:21Z</time>
      </trkpt>
      <trkpt lat="45.30904" lon="5.84751">
        <ele>1703.4410400391</ele>
        <time>2017-02-14T12:06:23Z</time>
      </trkpt>
      <trkpt lat="45.30898" lon="5.84754">
        <ele>1699.4410400391</ele>
        <time>2017-02-14T12:06:24Z</time>
      </trkpt>
      <trkpt lat="45.30891" lon="5.84749">
        <ele>1691.4410400391</ele>
        <time>2017-02-14T12:06:26Z</time>
      </trkpt>
      <trkpt lat="45.30894" lon="5.84734">
        <ele>1689.4410400391</ele>
        <time>2017-02-14T12:06:28Z</time>
      </trkpt>
      <trkpt lat="45.30896" lon="5.84716">
        <ele>1686.4410400391</ele>
        <time>2017-02-14T12:06:30Z</time>
      </trkpt>
      <trkpt lat="45.30887" lon="5.84705">
        <ele>1683.4410400391</ele>
        <time>2017-02-14T12:06:32Z</time>
      </trkpt>
      <trkpt lat="45.30878" lon="5.84718">
        <ele>1681.4410400391</ele>
        <time>2017-02-14T12:06:33Z</time>
      </trkpt>
      <trkpt lat="45.30872" lon="5.84718">
        <ele>1682.4410400391</ele>
        <time>2017-02-14T12:06:34Z</time>
      </trkpt>
      <trkpt lat="45.30869" lon="5.84711">
        <ele>1679.4410400391</ele>
        <time>2017-02-14T12:06:37Z</time>
      </trkpt>
      <trkpt lat="45.30873" lon="5.84706">
        <ele>1550.4410400391</ele>
        <time>2017-02-14T12:06:42Z</time>
      </trkpt>
      <trkpt lat="45.30875" lon="5.84699">
        <ele>1649.4410400391</ele>
        <time>2017-02-14T12:06:49Z</time>
      </trkpt>
      <trkpt lat="45.30873" lon="5.8469">
        <ele>1652.4410400391</ele>
        <time>2017-02-14T12:06:51Z</time>
      </trkpt>
      <trkpt lat="45.30861" lon="5.84692">
        <ele>1653.4410400391</ele>
        <time>2017-02-14T12:06:53Z</time>
      </trkpt>
      <trkpt lat="45.30852" lon="5.84696">
        <ele>1649.4410400391</ele>
        <time>2017-02-14T12:06:55Z</time>
      </trkpt>
      <trkpt lat="45.30844" lon="5.84693">
        <ele>1648.4410400391</ele>
        <time>2017-02-14T12:06:57Z</time>
      </trkpt>
      <trkpt lat="45.3084" lon="5.84675">
        <ele>1644.4410400391</ele>
        <time>2017-02-14T12:06:59Z</time>
      </trkpt>
      <trkpt lat="45.30835" lon="5.84667">
        <ele>1641.4410400391</ele>
        <time>2017-02-14T12:07:00Z</time>
      </trkpt>
      <trkpt lat="45.30828" lon="5.84651">
        <ele>1637.4410400391</ele>
        <time>2017-02-14T12:07:02Z</time>
      </trkpt>
      <trkpt lat="45.30823" lon="5.84637">
        <ele>1635.4410400391</ele>
        <time>2017-02-14T12:07:04Z</time>
      </trkpt>
      <trkpt lat="45.3082" lon="5.84629">
        <ele>1634.4410400391</ele>
        <time>2017-02-14T12:07:05Z</time>
      </trkpt>
      <trkpt lat="45.30813" lon="5.84617">
        <ele>1631.4410400391</ele>
        <time>2017-02-14T12:07:07Z</time>
      </trkpt>
      <trkpt lat="45.30817" lon="5.84605">
        <ele>1629.4410400391</ele>
        <time>2017-02-14T12:07:09Z</time>
      </trkpt>
      <trkpt lat="45.30814" lon="5.84598">
        <ele>1626.4410400391</ele>
        <time>2017-02-14T12:07:11Z</time>
      </trkpt>
      <trkpt lat="45.3081" lon="5.84582">
        <ele>1622.4410400391</ele>
        <time>2017-02-14T12:07:13Z</time>
      </trkpt>
      <trkpt lat="45.30804" lon="5.8458">
        <ele>1616.4410400391</ele>
        <time>2017-02-14T12:07:15Z</time>
      </trkpt>
      <trkpt lat="45.30804" lon="5.84587">
        <ele>1610.4410400391</ele>
        <time>2017-02-14T12:07:22Z</time>
      </trkpt>
      <trkpt lat="45.30804" lon="5.84575">
        <ele>1602.4410400391</ele>
        <time>2017-02-14T12:07:32Z</time>
      </trkpt>
      <trkpt lat="45.30805" lon="5.8455">
        <ele>1600.4410400391</ele>
        <time>2017-02-14T12:07:34Z</time>
      </trkpt>
      <trkpt lat="45.308" lon="5.84525">
        <ele>1596.4410400391</ele>
        <time>2017-02-14T12:07:37Z</time>
      </trkpt>
      <trkpt lat="45.30797" lon="5.84507">
        <ele>1593.4410400391</ele>
        <time>2017-02-14T12:07:39Z</time>
      </trkpt>
      <trkpt lat="45.3079" lon="5.84502">
        <ele>1745.4410400391</ele>
        <time>2017-02-14T12:07:40Z</time>
      </trkpt>
      <trkpt lat="45.30786" lon="5.84496">
        <ele>1723.4410400391</ele>
        <time>2017-02-14T12:07:41Z</time>
      </trkpt>
      <trkpt lat="45.30781" lon="5.84484">
        <ele>1689.4410400391</ele>
        <time>2017-02-14T12:07:43Z</time>
      </trkpt>
      <trkpt lat="45.30775" lon="5.84486">
        <ele>1659.4410400391</ele>
        <time>2017-02-14T12:07:44Z</time>
      </trkpt>
      <trkpt lat="45.30769" lon="5.84487">
        <ele>1638.4410400391</ele>
        <time>2017-02-14T12:07:45Z</time>
      </trkpt>
      <trkpt lat="45.30758" lon="5.84487">
        <ele>1577.4410400391</ele>
        <time>2017-02-14T12:07:47Z</time>
      </trkpt>
      <trkpt lat="45.3075" lon="5.84492">
        <ele>1574.4410400391</ele>
        <time>2017-02-14T12:07:49Z</time>
      </trkpt>
      <trkpt lat="45.30742" lon="5.84495">
        <ele>1570.4410400391</ele>
        <time>2017-02-14T12:07:51Z</time>
      </trkpt>
      <trkpt lat="45.30732" lon="5.84497">
        <ele>1569.4410400391</ele>
        <time>2017-02-14T12:07:53Z</time>
      </trkpt>
      <trkpt lat="45.30721" lon="5.84484">
        <ele>1563.4410400391</ele>
        <time>2017-02-14T12:07:56Z</time>
      </trkpt>
      <trkpt lat="45.30722" lon="5.84474">
        <ele>1559.4410400391</ele>
        <time>2017-02-14T12:07:57Z</time>
      </trkpt>
      <trkpt lat="45.30715" lon="5.84464">
        <ele>1555.4410400391</ele>
        <time>2017-02-14T12:07:59Z</time>
      </trkpt>
      <trkpt lat="45.30708" lon="5.84447">
        <ele>1560.4399414062</ele>
        <time>2017-02-14T12:08:01Z</time>
      </trkpt>
      <trkpt lat="45.30713" lon="5.84443">
        <ele>1557.4399414062</ele>
        <time>2017-02-14T12:08:02Z</time>
      </trkpt>
      <trkpt lat="45.30716" lon="5.84431">
        <ele>1552.4399414062</ele>
        <time>2017-02-14T12:08:05Z</time>
      </trkpt>
      <trkpt lat="45.30719" lon="5.84419">
        <ele>1548.4399414062</ele>
        <time>2017-02-14T12:08:07Z</time>
      </trkpt>
      <trkpt lat="45.30723" lon="5.84413">
        <ele>1544.4399414062</ele>
        <time>2017-02-14T12:08:09Z</time>
      </trkpt>
      <trkpt lat="45.30726" lon="5.84403">
        <ele>1541.4399414062</ele>
        <time>2017-02-14T12:08:11Z</time>
      </trkpt>
      <trkpt lat="45.30723" lon="5.84393">
        <ele>1539.4399414062</ele>
        <time>2017-02-14T12:08:13Z</time>
      </trkpt>
      <trkpt lat="45.30719" lon="5.84379">
        <ele>1536.4399414062</ele>
        <time>2017-02-14T12:08:15Z</time>
      </trkpt>
      <trkpt lat="45.30706" lon="5.84371">
        <ele>1382.4399414062</ele>
        <time>2017-02-14T12:08:17Z</time>
      </trkpt>
      <trkpt lat="45.30697" lon="5.84357">
        <ele>1415.4399414062</ele>
        <time>2017-02-14T12:08:19Z</time>
      </trkpt>
      <trkpt lat="45.30675" lon="5.84349">
        <ele>1439.4399414062</ele>
        <time>2017-02-14T12:08:21Z</time>
      </trkpt>
      <trkpt lat="45.30667" lon="5.84323">
        <ele>1453.4399414062</ele>
        <time>2017-02-14T12:08:25Z</time>
      </trkpt>
      <trkpt lat="45.30661" lon="5.84305">
        <ele>1463.4399414062</ele>
        <time>2017-02-14T12:08:27Z</time>
      </trkpt>
      <trkpt lat="45.30659" lon="5.84296">
        <ele>1466.4399414062</ele>
        <time>2017-02-14T12:08:29Z</time>
      </trkpt>
      <trkpt lat="45.30651" lon="5.84286">
        <ele>1469.4399414062</ele>
        <time>2017-02-14T12:08:31Z</time>
      </trkpt>
      <trkpt lat="45.30642" lon="5.84278">
        <ele>1471.4399414062</ele>
        <time>2017-02-14T12:08:33Z</time>
      </trkpt>
      <trkpt lat="45.30632" lon="5.84268">
        <ele>1471.4399414062</ele>
        <time>2017-02-14T12:08:35Z</time>
      </trkpt>
      <trkpt lat="45.30627" lon="5.8426">
        <ele>1475.4399414062</ele>
        <time>2017-02-14T12:08:36Z</time>
      </trkpt>
      <trkpt lat="45.30627" lon="5.84237">
        <ele>1476.4399414062</ele>
        <time>2017-02-14T12:08:38Z</time>
      </trkpt>
      <trkpt lat="45.30632" lon="5.84232">
        <ele>1474.4399414062</ele>
        <time>2017-02-14T12:08:39Z</time>
      </trkpt>
      <trkpt lat="45.30637" lon="5.84225">
        <ele>1475.4399414062</ele>
        <time>2017-02-14T12:08:40Z</time>
      </trkpt>
      <trkpt lat="45.30644" lon="5.84219">
        <ele>1474.4399414062</ele>
        <time>2017-02-14T12:08:41Z</time>
      </trkpt>
      <trkpt lat="45.30651" lon="5.84209">
        <ele>1470.4399414062</ele>
        <time>2017-02-14T12:08:43Z</time>
      </trkpt>
      <trkpt lat="45.30652" lon="5.84189">
        <ele>1465.4399414062</ele>
        <time>2017-02-14T12:08:48Z</time>
      </trkpt>
      <trkpt lat="45.30638" lon="5.84194">
        <ele>1464.4399414062</ele>
        <time>2017-02-14T12:08:50Z</time>
      </trkpt>
      <trkpt lat="45.30626" lon="5.84192">
        <ele>1458.4399414062</ele>
        <time>2017-02-14T12:08:53Z</time>
      </trkpt>
      <trkpt lat="45.30634" lon="5.84186">
        <ele>1455.4399414062</ele>
        <time>2017-02-14T12:08:55Z</time>
      </trkpt>
      <trkpt lat="45.30638" lon="5.8418">
        <ele>1453.4399414062</ele>
        <time>2017-02-14T12:08:57Z</time>
      </trkpt>
      <trkpt lat="45.30639" lon="5.84173">
        <ele>1449.4399414062</ele>
        <time>2017-02-14T12:08:59Z</time>
      </trkpt>
      <trkpt lat="45.30639" lon="5.84166">
        <ele>1450.4399414062</ele>
        <time>2017-02-14T12:09:01Z</time>
      </trkpt>
      <trkpt lat="45.30631" lon="5.8416">
        <ele>1447.4399414062</ele>
        <time>2017-02-14T12:09:03Z</time>
      </trkpt>
      <trkpt lat="45.30622" lon="5.84159">
        <ele>1443.4399414062</ele>
        <time>2017-02-14T12:09:04Z</time>
      </trkpt>
      <trkpt lat="45.30617" lon="5.84159">
        <ele>1443.4399414062</ele>
        <time>2017-02-14T12:09:05Z</time>
      </trkpt>
      <trkpt lat="45.30611" lon="5.84159">
        <ele>1441.4399414062</ele>
        <time>2017-02-14T12:09:06Z</time>
      </trkpt>
      <trkpt lat="45.30606" lon="5.84158">
        <ele>1441.4399414062</ele>
        <time>2017-02-14T12:09:07Z</time>
      </trkpt>
      <trkpt lat="45.30597" lon="5.84151">
        <ele>1438.4399414062</ele>
        <time>2017-02-14T12:09:09Z</time>
      </trkpt>
      <trkpt lat="45.3058" lon="5.84142">
        <ele>1436.4399414062</ele>
        <time>2017-02-14T12:09:12Z</time>
      </trkpt>
      <trkpt lat="45.30572" lon="5.84134">
        <ele>1435.4399414062</ele>
        <time>2017-02-14T12:09:14Z</time>
      </trkpt>
      <trkpt lat="45.30561" lon="5.84134">
        <ele>1433.4399414062</ele>
        <time>2017-02-14T12:09:16Z</time>
      </trkpt>
      <trkpt lat="45.30552" lon="5.84133">
        <ele>1428.4399414062</ele>
        <time>2017-02-14T12:09:31Z</time>
      </trkpt>
      <trkpt lat="45.3055" lon="5.84122">
        <ele>1426.4399414062</ele>
        <time>2017-02-14T12:09:51Z</time>
      </trkpt>
      <trkpt lat="45.30544" lon="5.84111">
        <ele>1424.4399414062</ele>
        <time>2017-02-14T12:09:53Z</time>
      </trkpt>
      <trkpt lat="45.30538" lon="5.84101">
        <ele>1423.4399414062</ele>
        <time>2017-02-14T12:09:54Z</time>
      </trkpt>
      <trkpt lat="45.30533" lon="5.84096">
        <ele>1419.4399414062</ele>
        <time>2017-02-14T12:09:55Z</time>
      </trkpt>
      <trkpt lat="45.30524" lon="5.84086">
        <ele>1416.4399414062</ele>
        <time>2017-02-14T12:09:57Z</time>
      </trkpt>
      <trkpt lat="45.30512" lon="5.84069">
        <ele>1413.4399414062</ele>
        <time>2017-02-14T12:10:00Z</time>
      </trkpt>
      <trkpt lat="45.30509" lon="5.84062">
        <ele>1413.4399414062</ele>
        <time>2017-02-14T12:10:01Z</time>
      </trkpt>
      <trkpt lat="45.30497" lon="5.84051">
        <ele>1409.4399414062</ele>
        <time>2017-02-14T12:10:03Z</time>
      </trkpt>
      <trkpt lat="45.30483" lon="5.8404">
        <ele>1403.4389648438</ele>
        <time>2017-02-14T12:10:05Z</time>
      </trkpt>
      <trkpt lat="45.3047" lon="5.84033">
        <ele>1402.4389648438</ele>
        <time>2017-02-14T12:10:07Z</time>
      </trkpt>
      <trkpt lat="45.30455" lon="5.84026">
        <ele>1397.4389648438</ele>
        <time>2017-02-14T12:10:09Z</time>
      </trkpt>
      <trkpt lat="45.30448" lon="5.84023">
        <ele>1396.4389648438</ele>
        <time>2017-02-14T12:10:10Z</time>
      </trkpt>
      <trkpt lat="45.30435" lon="5.84018">
        <ele>1393.4389648438</ele>
        <time>2017-02-14T12:10:12Z</time>
      </trkpt>
      <trkpt lat="45.30425" lon="5.84011">
        <ele>1391.4389648438</ele>
        <time>2017-02-14T12:10:14Z</time>
      </trkpt>
      <trkpt lat="45.30412" lon="5.84002">
        <ele>1386.4389648438</ele>
        <time>2017-02-14T12:10:16Z</time>
      </trkpt>
      <trkpt lat="45.30398" lon="5.83992">
        <ele>1385.4389648438</ele>
        <time>2017-02-14T12:10:18Z</time>
      </trkpt>
      <trkpt lat="45.30387" lon="5.83983">
        <ele>1383.4389648438</ele>
        <time>2017-02-14T12:10:20Z</time>
      </trkpt>
      <trkpt lat="45.30377" lon="5.83975">
        <ele>1383.4389648438</ele>
        <time>2017-02-14T12:10:22Z</time>
      </trkpt>
      <trkpt lat="45.30366" lon="5.83965">
        <ele>1382.4389648438</ele>
        <time>2017-02-14T12:10:24Z</time>
      </trkpt>
      <trkpt lat="45.30359" lon="5.83953">
        <ele>1382.4389648438</ele>
        <time>2017-02-14T12:10:26Z</time>
      </trkpt>
      <trkpt lat="45.30354" lon="5.83946">
        <ele>1382.4389648438</ele>
        <time>2017-02-14T12:10:27Z</time>
      </trkpt>
      <trkpt lat="45.30342" lon="5.83927">
        <ele>1378.4389648438</ele>
        <time>2017-02-14T12:10:29Z</time>
      </trkpt>
      <trkpt lat="45.30336" lon="5.8392">
        <ele>1374.4389648438</ele>
        <time>2017-02-14T12:10:31Z</time>
      </trkpt>
      <trkpt lat="45.30326" lon="5.8391">
        <ele>1372.4389648438</ele>
        <time>2017-02-14T12:10:33Z</time>
      </trkpt>
      <trkpt lat="45.30317" lon="5.83912">
        <ele>1369.4389648438</ele>
        <time>2017-02-14T12:10:35Z</time>
      </trkpt>
      <trkpt lat="45.30316" lon="5.83925">
        <ele>1368.4389648438</ele>
        <time>2017-02-14T12:10:37Z</time>
      </trkpt>
      <trkpt lat="45.30322" lon="5.83946">
        <ele>1366.4389648438</ele>
        <time>2017-02-14T12:10:39Z</time>
      </trkpt>
      <trkpt lat="45.30328" lon="5.83969">
        <ele>1368.4389648438</ele>
        <time>2017-02-14T12:10:41Z</time>
      </trkpt>
      <trkpt lat="45.30335" lon="5.83987">
        <ele>1366.4389648438</ele>
        <time>2017-02-14T12:10:43Z</time>
      </trkpt>
      <trkpt lat="45.30342" lon="5.84001">
        <ele>1366.4389648438</ele>
        <time>2017-02-14T12:10:45Z</time>
      </trkpt>
      <trkpt lat="45.30347" lon="5.84014">
        <ele>1364.4389648438</ele>
        <time>2017-02-14T12:10:47Z</time>
      </trkpt>
      <trkpt lat="45.30348" lon="5.84031">
        <ele>1358.4389648438</ele>
        <time>2017-02-14T12:10:50Z</time>
      </trkpt>
      <trkpt lat="45.3034" lon="5.84037">
        <ele>1361.4389648438</ele>
        <time>2017-02-14T12:10:52Z</time>
      </trkpt>
      <trkpt lat="45.30326" lon="5.84021">
        <ele>1361.4389648438</ele>
        <time>2017-02-14T12:10:54Z</time>
      </trkpt>
      <trkpt lat="45.3031" lon="5.8401">
        <ele>1354.4389648438</ele>
        <time>2017-02-14T12:10:56Z</time>
      </trkpt>
      <trkpt lat="45.30296" lon="5.83994">
        <ele>1354.4389648438</ele>
        <time>2017-02-14T12:10:58Z</time>
      </trkpt>
      <trkpt lat="45.30291" lon="5.83991">
        <ele>1354.4389648438</ele>
        <time>2017-02-14T12:10:59Z</time>
      </trkpt>
      <trkpt lat="45.30281" lon="5.83975">
        <ele>1351.4389648438</ele>
        <time>2017-02-14T12:11:02Z</time>
      </trkpt>
      <trkpt lat="45.30272" lon="5.83967">
        <ele>1348.4389648438</ele>
        <time>2017-02-14T12:11:04Z</time>
      </trkpt>
      <trkpt lat="45.3026" lon="5.83959">
        <ele>1347.4389648438</ele>
        <time>2017-02-14T12:11:06Z</time>
      </trkpt>
      <trkpt lat="45.30245" lon="5.8395">
        <ele>1347.4389648438</ele>
        <time>2017-02-14T12:11:08Z</time>
      </trkpt>
      <trkpt lat="45.30233" lon="5.83943">
        <ele>1347.4389648438</ele>
        <time>2017-02-14T12:11:09Z</time>
      </trkpt>
      <trkpt lat="45.30229" lon="5.83946">
        <ele>1346.4389648438</ele>
        <time>2017-02-14T12:11:11Z</time>
      </trkpt>
      <trkpt lat="45.30214" lon="5.83948">
        <ele>1346.4389648438</ele>
        <time>2017-02-14T12:11:13Z</time>
      </trkpt>
      <trkpt lat="45.30193" lon="5.83953">
        <ele>1343.4389648438</ele>
        <time>2017-02-14T12:11:15Z</time>
      </trkpt>
      <trkpt lat="45.30183" lon="5.83953">
        <ele>1342.4389648438</ele>
        <time>2017-02-14T12:11:16Z</time>
      </trkpt>
      <trkpt lat="45.30169" lon="5.83954">
        <ele>1341.4389648438</ele>
        <time>2017-02-14T12:11:18Z</time>
      </trkpt>
      <trkpt lat="45.30158" lon="5.83953">
        <ele>1339.4389648438</ele>
        <time>2017-02-14T12:11:20Z</time>
      </trkpt>
      <trkpt lat="45.30143" lon="5.83952">
        <ele>1335.4389648438</ele>
        <time>2017-02-14T12:11:22Z</time>
      </trkpt>
      <trkpt lat="45.30143" lon="5.83969">
        <ele>1336.4389648438</ele>
        <time>2017-02-14T12:11:26Z</time>
      </trkpt>
      <trkpt lat="45.30152" lon="5.8397">
        <ele>1334.4389648438</ele>
        <time>2017-02-14T12:11:27Z</time>
      </trkpt>
      <trkpt lat="45.30162" lon="5.83973">
        <ele>1333.4389648438</ele>
        <time>2017-02-14T12:11:29Z</time>
      </trkpt>
      <trkpt lat="45.30175" lon="5.83975">
        <ele>1332.4389648438</ele>
        <time>2017-02-14T12:11:32Z</time>
      </trkpt>
      <trkpt lat="45.3019" lon="5.83979">
        <ele>1332.4389648438</ele>
        <time>2017-02-14T12:11:34Z</time>
      </trkpt>
      <trkpt lat="45.30203" lon="5.83991">
        <ele>1331.4389648438</ele>
        <time>2017-02-14T12:11:36Z</time>
      </trkpt>
      <trkpt lat="45.30206" lon="5.83998">
        <ele>1331.4389648438</ele>
        <time>2017-02-14T12:11:37Z</time>
      </trkpt>
      <trkpt lat="45.30212" lon="5.84016">
        <ele>1328.4389648438</ele>
        <time>2017-02-14T12:11:39Z</time>
      </trkpt>
      <trkpt lat="45.30215" lon="5.84028">
        <ele>1327.4389648438</ele>
        <time>2017-02-14T12:11:40Z</time>
      </trkpt>
      <trkpt lat="45.30218" lon="5.8404">
        <ele>1326.4389648438</ele>
        <time>2017-02-14T12:11:42Z</time>
      </trkpt>
      <trkpt lat="45.30227" lon="5.84057">
        <ele>1325.4389648438</ele>
        <time>2017-02-14T12:11:45Z</time>
      </trkpt>
      <trkpt lat="45.30228" lon="5.84067">
        <ele>1325.4389648438</ele>
        <time>2017-02-14T12:11:47Z</time>
      </trkpt>
      <trkpt lat="45.30222" lon="5.8409">
        <ele>1327.4389648438</ele>
        <time>2017-02-14T12:11:49Z</time>
      </trkpt>
      <trkpt lat="45.30218" lon="5.84095">
        <ele>1328.4389648438</ele>
        <time>2017-02-14T12:11:51Z</time>
      </trkpt>
      <trkpt lat="45.30213" lon="5.8409">
        <ele>1329.4389648438</ele>
        <time>2017-02-14T12:11:53Z</time>
      </trkpt>
      <trkpt lat="45.3021" lon="5.84077">
        <ele>1327.4389648438</ele>
        <time>2017-02-14T12:11:55Z</time>
      </trkpt>
      <trkpt lat="45.302" lon="5.84062">
        <ele>1327.4389648438</ele>
        <time>2017-02-14T12:11:57Z</time>
      </trkpt>
      <trkpt lat="45.30192" lon="5.8406">
        <ele>1326.4389648438</ele>
        <time>2017-02-14T12:11:58Z</time>
      </trkpt>
      <trkpt lat="45.3018" lon="5.84053">
        <ele>1325.4389648438</ele>
        <time>2017-02-14T12:11:59Z</time>
      </trkpt>
      <trkpt lat="45.30169" lon="5.84058">
        <ele>1325.4389648438</ele>
        <time>2017-02-14T12:12:00Z</time>
      </trkpt>
      <trkpt lat="45.30151" lon="5.84055">
        <ele>1323.4389648438</ele>
        <time>2017-02-14T12:12:02Z</time>
      </trkpt>
      <trkpt lat="45.30142" lon="5.84057">
        <ele>1321.4389648438</ele>
        <time>2017-02-14T12:12:03Z</time>
      </trkpt>
      <trkpt lat="45.30124" lon="5.84061">
        <ele>1317.4389648438</ele>
        <time>2017-02-14T12:12:05Z</time>
      </trkpt>
      <trkpt lat="45.30107" lon="5.84066">
        <ele>1312.4389648438</ele>
        <time>2017-02-14T12:12:07Z</time>
      </trkpt>
      <trkpt lat="45.30092" lon="5.84069">
        <ele>1308.4389648438</ele>
        <time>2017-02-14T12:12:09Z</time>
      </trkpt>
      <trkpt lat="45.30084" lon="5.84069">
        <ele>1305.4389648438</ele>
        <time>2017-02-14T12:12:10Z</time>
      </trkpt>
      <trkpt lat="45.30067" lon="5.84072">
        <ele>1302.4389648438</ele>
        <time>2017-02-14T12:12:12Z</time>
      </trkpt>
      <trkpt lat="45.30051" lon="5.84072">
        <ele>1301.4389648438</ele>
        <time>2017-02-14T12:12:14Z</time>
      </trkpt>
      <trkpt lat="45.30033" lon="5.8407">
        <ele>1300.4389648438</ele>
        <time>2017-02-14T12:12:16Z</time>
      </trkpt>
      <trkpt lat="45.30017" lon="5.84074">
        <ele>1295.4389648438</ele>
        <time>2017-02-14T12:12:18Z</time>
      </trkpt>
      <trkpt lat="45.30004" lon="5.84075">
        <ele>1292.4389648438</ele>
        <time>2017-02-14T12:12:20Z</time>
      </trkpt>
      <trkpt lat="45.29993" lon="5.84074">
        <ele>1292.4379882812</ele>
        <time>2017-02-14T12:12:22Z</time>
      </trkpt>
      <trkpt lat="45.29985" lon="5.84074">
        <ele>1291.4379882812</ele>
        <time>2017-02-14T12:12:23Z</time>
      </trkpt>
      <trkpt lat="45.29971" lon="5.84065">
        <ele>1288.4379882812</ele>
        <time>2017-02-14T12:12:25Z</time>
      </trkpt>
      <trkpt lat="45.29958" lon="5.84061">
        <ele>1286.4379882812</ele>
        <time>2017-02-14T12:12:27Z</time>
      </trkpt>
      <trkpt lat="45.29955" lon="5.8407">
        <ele>1282.4379882812</ele>
        <time>2017-02-14T12:12:30Z</time>
      </trkpt>
      <trkpt lat="45.29966" lon="5.84091">
        <ele>1280.4379882812</ele>
        <time>2017-02-14T12:12:32Z</time>
      </trkpt>
      <trkpt lat="45.29982" lon="5.84112">
        <ele>1280.4389648438</ele>
        <time>2017-02-14T12:12:34Z</time>
      </trkpt>
      <trkpt lat="45.29996" lon="5.84127">
        <ele>1279.4389648438</ele>
        <time>2017-02-14T12:12:36Z</time>
      </trkpt>
      <trkpt lat="45.30006" lon="5.84141">
        <ele>1279.4389648438</ele>
        <time>2017-02-14T12:12:38Z</time>
      </trkpt>
      <trkpt lat="45.30018" lon="5.84158">
        <ele>1279.4389648438</ele>
        <time>2017-02-14T12:12:40Z</time>
      </trkpt>
      <trkpt lat="45.30029" lon="5.84169">
        <ele>1278.4389648438</ele>
        <time>2017-02-14T12:12:42Z</time>
      </trkpt>
      <trkpt lat="45.30021" lon="5.84172">
        <ele>1277.4389648438</ele>
        <time>2017-02-14T12:12:44Z</time>
      </trkpt>
      <trkpt lat="45.30017" lon="5.8419">
        <ele>1276.4389648438</ele>
        <time>2017-02-14T12:12:46Z</time>
      </trkpt>
      <trkpt lat="45.30002" lon="5.84204">
        <ele>1275.4389648438</ele>
        <time>2017-02-14T12:12:48Z</time>
      </trkpt>
      <trkpt lat="45.29982" lon="5.84209">
        <ele>1276.4389648438</ele>
        <time>2017-02-14T12:12:50Z</time>
      </trkpt>
      <trkpt lat="45.29972" lon="5.84221">
        <ele>1277.4389648438</ele>
        <time>2017-02-14T12:12:52Z</time>
      </trkpt>
      <trkpt lat="45.29954" lon="5.84236">
        <ele>1274.4389648438</ele>
        <time>2017-02-14T12:12:54Z</time>
      </trkpt>
      <trkpt lat="45.29938" lon="5.84247">
        <ele>1270.4389648438</ele>
        <time>2017-02-14T12:12:56Z</time>
      </trkpt>
      <trkpt lat="45.29911" lon="5.84251">
        <ele>1267.4389648438</ele>
        <time>2017-02-14T12:12:58Z</time>
      </trkpt>
      <trkpt lat="45.29902" lon="5.84257">
        <ele>1268.4389648438</ele>
        <time>2017-02-14T12:12:59Z</time>
      </trkpt>
      <trkpt lat="45.29901" lon="5.84263">
        <ele>1266.4389648438</ele>
        <time>2017-02-14T12:13:00Z</time>
      </trkpt>
      <trkpt lat="45.29892" lon="5.84282">
        <ele>1264.4389648438</ele>
        <time>2017-02-14T12:13:02Z</time>
      </trkpt>
      <trkpt lat="45.29872" lon="5.84299">
        <ele>1260.4389648438</ele>
        <time>2017-02-14T12:13:05Z</time>
      </trkpt>
      <trkpt lat="45.29862" lon="5.84313">
        <ele>1258.4389648438</ele>
        <time>2017-02-14T12:13:07Z</time>
      </trkpt>
      <trkpt lat="45.29858" lon="5.84322">
        <ele>1258.4389648438</ele>
        <time>2017-02-14T12:13:08Z</time>
      </trkpt>
      <trkpt lat="45.29851" lon="5.84328">
        <ele>1256.4389648438</ele>
        <time>2017-02-14T12:13:09Z</time>
      </trkpt>
      <trkpt lat="45.29844" lon="5.84332">
        <ele>1254.4389648438</ele>
        <time>2017-02-14T12:13:10Z</time>
      </trkpt>
      <trkpt lat="45.29829" lon="5.8434">
        <ele>1249.4389648438</ele>
        <time>2017-02-14T12:13:12Z</time>
      </trkpt>
      <trkpt lat="45.29816" lon="5.84351">
        <ele>1246.4379882812</ele>
        <time>2017-02-14T12:13:14Z</time>
      </trkpt>
      <trkpt lat="45.29805" lon="5.84362">
        <ele>1245.4379882812</ele>
        <time>2017-02-14T12:13:16Z</time>
      </trkpt>
      <trkpt lat="45.29798" lon="5.84371">
        <ele>1241.4379882812</ele>
        <time>2017-02-14T12:13:18Z</time>
      </trkpt>
      <trkpt lat="45.29791" lon="5.84381">
        <ele>1239.4379882812</ele>
        <time>2017-02-14T12:13:20Z</time>
      </trkpt>
      <trkpt lat="45.29782" lon="5.84391">
        <ele>1235.4379882812</ele>
        <time>2017-02-14T12:13:22Z</time>
      </trkpt>
      <trkpt lat="45.29779" lon="5.84398">
        <ele>1236.4379882812</ele>
        <time>2017-02-14T12:13:25Z</time>
      </trkpt>
      <trkpt lat="45.29774" lon="5.84397">
        <ele>1235.4379882812</ele>
        <time>2017-02-14T12:13:47Z</time>
      </trkpt>
      <trkpt lat="45.29768" lon="5.84402">
        <ele>1233.4379882812</ele>
        <time>2017-02-14T12:13:50Z</time>
      </trkpt>
      <trkpt lat="45.29763" lon="5.84406">
        <ele>1232.4379882812</ele>
        <time>2017-02-14T12:13:53Z</time>
      </trkpt>
      <trkpt lat="45.29757" lon="5.84409">
        <ele>1234.4379882812</ele>
        <time>2017-02-14T12:13:55Z</time>
      </trkpt>
      <trkpt lat="45.29753" lon="5.84414">
        <ele>1234.4379882812</ele>
        <time>2017-02-14T12:13:57Z</time>
      </trkpt>
      <trkpt lat="45.29747" lon="5.84416">
        <ele>1234.4379882812</ele>
        <time>2017-02-14T12:13:59Z</time>
      </trkpt>
      <trkpt lat="45.29743" lon="5.84422">
        <ele>1233.4379882812</ele>
        <time>2017-02-14T12:14:01Z</time>
      </trkpt>
      <trkpt lat="45.29739" lon="5.84426">
        <ele>1232.4379882812</ele>
        <time>2017-02-14T12:14:03Z</time>
      </trkpt>
      <trkpt lat="45.29735" lon="5.84429">
        <ele>1231.4379882812</ele>
        <time>2017-02-14T12:14:05Z</time>
      </trkpt>
      <trkpt lat="45.29731" lon="5.84437">
        <ele>1230.4379882812</ele>
        <time>2017-02-14T12:14:07Z</time>
      </trkpt>
      <trkpt lat="45.29726" lon="5.84444">
        <ele>1228.4379882812</ele>
        <time>2017-02-14T12:14:10Z</time>
      </trkpt>
      <trkpt lat="45.29721" lon="5.84448">
        <ele>1228.4379882812</ele>
        <time>2017-02-14T12:14:12Z</time>
      </trkpt>
      <trkpt lat="45.29716" lon="5.84452">
        <ele>1227.4379882812</ele>
        <time>2017-02-14T12:14:14Z</time>
      </trkpt>
      <trkpt lat="45.29711" lon="5.84456">
        <ele>1226.4379882812</ele>
        <time>2017-02-14T12:14:16Z</time>
      </trkpt>
      <trkpt lat="45.29706" lon="5.84459">
        <ele>1226.4379882812</ele>
        <time>2017-02-14T12:14:18Z</time>
      </trkpt>
      <trkpt lat="45.29701" lon="5.84464">
        <ele>1226.4379882812</ele>
        <time>2017-02-14T12:14:20Z</time>
      </trkpt>
      <trkpt lat="45.29697" lon="5.84468">
        <ele>1224.4379882812</ele>
        <time>2017-02-14T12:14:22Z</time>
      </trkpt>
      <trkpt lat="45.29691" lon="5.84472">
        <ele>1221.4379882812</ele>
        <time>2017-02-14T12:14:24Z</time>
      </trkpt>
      <trkpt lat="45.29686" lon="5.84478">
        <ele>1221.4379882812</ele>
        <time>2017-02-14T12:14:26Z</time>
      </trkpt>
      <trkpt lat="45.29682" lon="5.84484">
        <ele>1221.4379882812</ele>
        <time>2017-02-14T12:14:28Z</time>
      </trkpt>
      <trkpt lat="45.29677" lon="5.84489">
        <ele>1221.4379882812</ele>
        <time>2017-02-14T12:14:30Z</time>
      </trkpt>
      <trkpt lat="45.29671" lon="5.8449">
        <ele>1222.4379882812</ele>
        <time>2017-02-14T12:14:32Z</time>
      </trkpt>
      <trkpt lat="45.29667" lon="5.84494">
        <ele>1221.4379882812</ele>
        <time>2017-02-14T12:14:34Z</time>
      </trkpt>
      <trkpt lat="45.29663" lon="5.84498">
        <ele>1221.4379882812</ele>
        <time>2017-02-14T12:14:36Z</time>
      </trkpt>
      <trkpt lat="45.29659" lon="5.84506">
        <ele>1219.4379882812</ele>
        <time>2017-02-14T12:14:38Z</time>
      </trkpt>
      <trkpt lat="45.29654" lon="5.84513">
        <ele>1219.4379882812</ele>
        <time>2017-02-14T12:14:40Z</time>
      </trkpt>
      <trkpt lat="45.2965" lon="5.84518">
        <ele>1218.4379882812</ele>
        <time>2017-02-14T12:14:42Z</time>
      </trkpt>
      <trkpt lat="45.29646" lon="5.84522">
        <ele>1220.4379882812</ele>
        <time>2017-02-14T12:14:44Z</time>
      </trkpt>
      <trkpt lat="45.29642" lon="5.84528">
        <ele>1220.4379882812</ele>
        <time>2017-02-14T12:14:47Z</time>
      </trkpt>
    </trkseg>
  </trk>
</gpx>